M I D A S
Marine Information and Data Acquisition System
Tripno 1076 of the Zeeleeuw from 2006-04-26 06:45:50 to 2006-04-26 13:18:57
Back to CruiseResearch ActivitiesStationsMapUnderway DataData graphs

EquipmentUnitsComment
TimeDGPSUTC
LatitudeDGPSDM.mWGS84
LongitudeDGPSDM.mWGS84
TemperatureSBE03/SBE38deg celciusITS90
ConductivitySBE21S/mITS90
SalinitySBE21 Practical Salinity Units
ChlorophylAChelsea fluorimeterg/lCalibrated in Aceton
Missing or incorrect values are displayed as -999
Sea surface data collected by the RV Zeeleeuw from 2006-04-26 06:33:57 to 2006-04-26 13:17:11
                                                                                    Next 1000 lines
Time Latitude Longitude Temperature Conductivity Salinity ChlorophylA
2006-04-26 06:34:07 51°13.601 2°56.095 18.2052 0.058447 0.317766 13.545247
2006-04-26 06:34:11 51°13.601 2°56.093 18.2467 0.058447 0.317766 13.545247
2006-04-26 06:34:15 51°13.602 2°56.091 18.3113 0.058135 0.316115 13.545247
2006-04-26 06:34:21 51°13.602 2°56.087 18.2964 0.058447 0.317929 13.511537
2006-04-26 06:34:26 51°13.603 2°56.083 18.3431 0.058551 0.31854 13.545247
2006-04-26 06:34:31 51°13.604 2°56.079 18.3373 0.058551 0.318525 13.545247
2006-04-26 06:34:37 51°13.605 2°56.073 18.3215 0.058551 0.318525 13.545247
2006-04-26 06:34:41 51°13.606 2°56.068 18.308 0.058551 0.318484 13.578956
2006-04-26 06:34:46 51°13.607 2°56.063 18.3005 0.058551 0.318423 13.511537
2006-04-26 06:34:51 51°13.609 2°56.056 18.2983 0.058551 0.318383 13.511537
2006-04-26 06:34:57 51°13.61 2°56.047 18.3253 0.058551 0.318352 13.545247
2006-04-26 06:35:01 51°13.611 2°56.04 18.3636 0.058551 0.318352 13.578956
2006-04-26 06:35:07 51°13.614 2°56.03 18.3425 0.058551 0.318352 13.578956
2006-04-26 06:35:11 51°13.615 2°56.022 18.3864 0.058551 0.318372 13.578956
2006-04-26 06:35:17 51°13.617 2°56.011 18.3625 0.058551 0.318393 13.511537
2006-04-26 06:35:21 51°13.618 2°56.003 18.3577 0.058551 0.318418 13.545247
2006-04-26 06:35:26 51°13.62 2°55.994 18.3901 0.058551 0.318413 13.578956
2006-04-26 06:35:31 51°13.622 2°55.984 18.4021 0.058551 0.318393 13.545247
2006-04-26 06:35:37 51°13.625 2°55.972 18.3853 0.058551 0.318372 13.578956
2006-04-26 06:35:41 51°13.627 2°55.964 18.3803 0.058551 0.318372 13.578956
2006-04-26 06:35:47 51°13.631 2°55.952 18.3699 0.058551 0.318352 13.578956
2006-04-26 06:35:51 51°13.633 2°55.944 18.3763 0.058551 0.318352 13.545247
2006-04-26 06:35:56 51°13.637 2°55.935 18.3271 0.058551 0.318367 13.578956
2006-04-26 06:36:02 51°13.641 2°55.923 18.3441 0.058551 0.318398 13.578956
2006-04-26 06:36:07 51°13.645 2°55.914 18.3578 0.058551 0.318413 13.578956
2006-04-26 06:36:11 51°13.648 2°55.906 18.3562 0.058551 0.318413 13.578956
2006-04-26 06:36:17 51°13.653 2°55.895 18.3592 0.058551 0.318428 13.545247
2006-04-26 06:36:21 51°13.657 2°55.888 18.3747 0.058551 0.318428 13.578956
2006-04-26 06:36:27 51°13.662 2°55.877 18.3773 0.058551 0.318418 13.545247
2006-04-26 06:36:31 51°13.666 2°55.87 18.3867 0.058551 0.318403 13.545247
2006-04-26 06:36:36 51°13.67 2°55.861 18.3781 0.058551 0.318403 13.545247
2006-04-26 06:36:41 51°13.675 2°55.853 18.3589 0.058551 0.318388 13.545247
2006-04-26 06:36:47 51°13.68 2°55.843 18.3119 0.058551 0.318377 13.578956
2006-04-26 06:36:51 51°13.684 2°55.836 15.6091 0.058551 0.318377 13.578956
2006-04-26 06:36:57 51°13.689 2°55.825 14.5782 0.058551 0.318078 10.848494
2006-04-26 06:37:01 51°13.693 2°55.818 13.2004 0.268987 1.562437 9.39899
2006-04-26 06:37:07 51°13.698 2°55.807 12.5204 0.268987 1.562437 9.39899
2006-04-26 06:37:11 51°13.701 2°55.8 12.0385 0.353428 2.090157 10.814785
2006-04-26 06:37:17 51°13.705 2°55.79 11.8513 0.557012 3.34082 10.443982
2006-04-26 06:37:21 51°13.707 2°55.783 11.8425 0.850539 5.359033 8.050614
2006-04-26 06:37:27 51°13.711 2°55.773 11.6811 1.485619 10.144886 7.74723
2006-04-26 06:37:31 51°13.713 2°55.767 11.5138 3.154856 23.881193 10.54511
2006-04-26 06:37:36 51°13.715 2°55.76 11.432 3.56903 28.363465 10.949623
2006-04-26 06:37:41 51°13.717 2°55.752 11.3236 3.56903 28.363465 10.949623
2006-04-26 06:37:46 51°13.719 2°55.746 11.379 3.569255 29.273389 10.612529
2006-04-26 06:37:51 51°13.719 2°55.74 11.339 3.526076 29.401963 10.309144
2006-04-26 06:37:56 51°13.72 2°55.734 11.3269 3.474893 29.29154 10.106888
2006-04-26 06:38:01 51°13.721 2°55.729 11.2625 3.448041 29.330003 9.803503
2006-04-26 06:38:06 51°13.722 2°55.725 11.261 3.448041 29.330003 9.803503
2006-04-26 06:38:11 51°13.723 2°55.722 11.3151 3.409813 29.12995 9.634956
2006-04-26 06:38:16 51°13.723 2°55.719 11.2631 3.381592 28.984854 9.4327
2006-04-26 06:38:21 51°13.724 2°55.717 11.2329 3.376012 29.036207 9.196734
2006-04-26 06:38:27 51°13.724 2°55.715 11.2238 3.35274 28.866621 9.061896
2006-04-26 06:38:31 51°13.724 2°55.715 11.196 3.325152 28.667674 8.960768
2006-04-26 06:38:36 51°13.725 2°55.715 11.1946 3.325152 28.667674 8.960768
2006-04-26 06:38:41 51°13.725 2°55.715 11.1538 3.318729 28.646666 8.927059
2006-04-26 06:38:46 51°13.726 2°55.716 11.1706 3.308937 28.591549 8.893349
2006-04-26 06:38:51 51°13.726 2°55.717 11.1413 3.300303 28.531537 8.85964
2006-04-26 06:38:55 51°13.727 2°55.718 11.1613 3.291775 28.469422 8.927059
2006-04-26 06:39:01 51°13.728 2°55.72 11.1388 3.291354 28.489798 8.927059
2006-04-26 06:39:07 51°13.729 2°55.722 11.1335 3.280509 28.406002 8.893349
2006-04-26 06:39:11 51°13.73 2°55.724 11.125 3.280509 28.406002 8.893349
2006-04-26 06:39:17 51°13.731 2°55.725 11.1447 3.287353 28.491781 8.927059
2006-04-26 06:39:21 51°13.732 2°55.726 11.1471 3.285142 28.480353 8.893349
2006-04-26 06:39:27 51°13.732 2°55.726 11.1412 3.280615 28.464426 8.960768
2006-04-26 06:39:31 51°13.732 2°55.726 11.1696 3.282405 28.492647 8.960768
2006-04-26 06:39:37 51°13.732 2°55.725 11.1104 3.268928 28.372348 8.927059
2006-04-26 06:39:41 51°13.731 2°55.725 11.1468 3.268928 28.372348 8.927059
2006-04-26 06:39:46 51°13.73 2°55.724 11.125 3.252082 28.222737 8.994477
2006-04-26 06:39:51 51°13.729 2°55.722 11.1132 3.250924 28.217084 8.994477
2006-04-26 06:39:57 51°13.727 2°55.72 11.1613 3.262821 28.331378 9.061896
2006-04-26 06:40:01 51°13.726 2°55.719 11.1551 3.249871 28.204543 9.095606
2006-04-26 06:40:07 51°13.725 2°55.717 11.144 3.249871 28.204543 9.095606
2006-04-26 06:40:11 51°13.724 2°55.716 11.129 3.261452 28.318226 9.095606
2006-04-26 06:40:17 51°13.724 2°55.715 11.0847 3.255662 28.271725 9.061896
2006-04-26 06:40:21 51°13.724 2°55.715 11.1019 3.256925 28.285085 9.061896
2006-04-26 06:40:27 51°13.725 2°55.716 11.0947 3.257241 28.295436 9.061896
2006-04-26 06:40:31 51°13.726 2°55.716 11.0792 3.265032 28.367289 9.163024
2006-04-26 06:40:36 51°13.728 2°55.717 11.1049 3.265032 28.367289 9.163024
2006-04-26 06:40:41 51°13.731 2°55.717 11.0846 3.262716 28.340743 9.129315
2006-04-26 06:40:46 51°13.734 2°55.717 11.1298 3.265454 28.373784 9.196734
2006-04-26 06:40:51 51°13.738 2°55.716 11.0908 3.257557 28.312506 9.196734
2006-04-26 06:40:55 51°13.741 2°55.715 11.1067 3.27114 28.456678 9.196734
2006-04-26 06:41:01 51°13.746 2°55.713 11.0903 3.281353 28.566747 9.230443
2006-04-26 06:41:06 51°13.751 2°55.71 11.0838 3.270087 28.461893 9.230443
2006-04-26 06:41:11 51°13.756 2°55.706 11.0867 3.270087 28.461893 9.230443
2006-04-26 06:41:16 51°13.762 2°55.701 11.102 3.273562 28.497212 9.264153
2006-04-26 06:41:21 51°13.769 2°55.696 11.1167 3.270087 28.461893 9.230443
2006-04-26 06:41:26 51°13.776 2°55.689 11.1264 3.26956 28.451908 9.163024
2006-04-26 06:41:31 51°13.784 2°55.683 11.1792 3.252504 28.286474 9.230443
2006-04-26 06:41:36 51°13.792 2°55.676 11.1842 3.258926 28.356246 9.264153
2006-04-26 06:41:41 51°13.8 2°55.668 11.2022 3.258926 28.356246 9.264153
2006-04-26 06:41:46 51°13.809 2°55.66 11.2173 3.259032 28.362159 9.331571
2006-04-26 06:41:51 51°13.818 2°55.652 11.2313 3.256821 28.339642 9.365281
2006-04-26 06:41:56 51°13.827 2°55.644 11.2231 3.255662 28.322375 9.365281
2006-04-26 06:42:01 51°13.836 2°55.637 11.2231 3.236079 28.126652 9.331571
2006-04-26 06:42:06 51°13.846 2°55.629 11.2199 3.236079 28.126652 9.331571
2006-04-26 06:42:11 51°13.856 2°55.621 11.2347 3.211864 27.876493 9.39899
2006-04-26 06:42:17 51°13.869 2°55.612 11.1751 3.179016 27.545392 9.331571
2006-04-26 06:42:21 51°13.877 2°55.606 11.1611 3.145118 27.204515 9.331571
2006-04-26 06:42:26 51°13.887 2°55.598 11.1321 3.117644 26.928141 9.297862
2006-04-26 06:42:31 51°13.898 2°55.59 11.1158 3.109117 26.841601 9.297862
2006-04-26 06:42:37 51°13.911 2°55.581 11.0997 3.102696 26.781528 9.230443
2006-04-26 06:42:41 51°13.92 2°55.575 11.1129 3.102696 26.781528 9.230443
2006-04-26 06:42:47 51°13.933 2°55.567 11.1045 3.100275 26.75557 9.163024
2006-04-26 06:42:51 51°13.942 2°55.561 11.0752 3.122696 26.975198 9.095606
2006-04-26 06:42:57 51°13.955 2°55.552 11.0763 3.127855 27.041885 9.028187
2006-04-26 06:43:01 51°13.964 2°55.546 11.0597 3.149856 27.269176 8.960768
2006-04-26 06:43:07 51°13.977 2°55.537 11.0746 3.171648 27.497919 8.893349
2006-04-26 06:43:11 51°13.986 2°55.531 11.072 3.171648 27.497919 8.893349
2006-04-26 06:43:16 51°13.996 2°55.524 11.0682 3.195967 27.746085 8.758512
2006-04-26 06:43:21 51°14.006 2°55.517 11.0628 3.205652 27.842692 8.623674
2006-04-26 06:43:27 51°14.017 2°55.508 11.0462 3.223129 28.019097 8.421418
2006-04-26 06:43:31 51°14.024 2°55.503 11.066 3.235342 28.149333 8.252871
2006-04-26 06:43:37 51°14.034 2°55.496 11.0551 3.235342 28.149333 8.252871
2006-04-26 06:43:41 51°14.04 2°55.491 11.0688 3.247556 28.276699 8.185452
2006-04-26 06:43:47 51°14.05 2°55.483 11.0773 3.248609 28.288677 8.118033
2006-04-26 06:43:51 51°14.056 2°55.479 11.0641 3.262823 28.428749 7.983195
2006-04-26 06:43:56 51°14.064 2°55.473 11.066 3.278195 28.5795 7.915777
2006-04-26 06:44:01 51°14.071 2°55.467 11.061 3.280511 28.605566 7.882067
2006-04-26 06:44:06 51°14.079 2°55.461 11.0636 3.280511 28.605566 7.882067
2006-04-26 06:44:11 51°14.085 2°55.456 11.0618 3.280512 28.606803 7.915777
2006-04-26 06:44:17 51°14.094 2°55.449 11.0551 3.279985 28.604815 7.915777
2006-04-26 06:44:21 51°14.099 2°55.445 11.0569 3.275879 28.560235 7.915777
2006-04-26 06:44:26 51°14.105 2°55.44 11.0558 3.268508 28.489123 7.814648
2006-04-26 06:44:31 51°14.112 2°55.434 11.0588 3.278827 28.588687 7.882067
2006-04-26 06:44:36 51°14.118 2°55.429 11.0533 3.273457 28.541805 7.882067
2006-04-26 06:44:41 51°14.125 2°55.424 11.0599 3.273457 28.541805 7.882067
2006-04-26 06:44:46 51°14.132 2°55.418 11.0514 3.277669 28.5806 7.882067
2006-04-26 06:44:51 51°14.139 2°55.412 11.0725 3.272404 28.532879 7.915777
2006-04-26 06:44:56 51°14.146 2°55.406 11.0625 3.276405 28.574586 7.915777
2006-04-26 06:45:01 51°14.153 2°55.4 11.0632 3.271141 28.522537 7.949486
2006-04-26 06:45:06 51°14.16 2°55.392 11.0691 3.271878 28.532736 8.016905
2006-04-26 06:45:11 51°14.167 2°55.385 11.0678 3.271878 28.532736 8.016905
2006-04-26 06:45:16 51°14.175 2°55.377 11.0749 3.273878 28.553282 8.016905
2006-04-26 06:45:21 51°14.182 2°55.368 11.0816 3.275458 28.566674 8.050614
2006-04-26 06:45:27 51°14.191 2°55.357 11.1002 3.273457 28.546745 8.016905
2006-04-26 06:45:31 51°14.197 2°55.35 11.1167 3.275247 28.564641 7.983195
2006-04-26 06:45:36 51°14.205 2°55.34 11.1175 3.275879 28.569504 7.983195
2006-04-26 06:45:41 51°14.212 2°55.329 11.1269 3.275879 28.569504 7.983195
2006-04-26 06:45:46 51°14.22 2°55.319 11.1339 3.26914 28.504464 7.949486
2006-04-26 06:45:51 51°14.228 2°55.308 11.1418 3.260296 28.416058 7.949486
2006-04-26 06:45:56 51°14.236 2°55.297 11.1319 3.251978 28.329717 7.949486
2006-04-26 06:46:01 51°14.243 2°55.286 11.1355 3.243028 28.23797 7.915777
2006-04-26 06:46:06 51°14.251 2°55.274 11.123 3.243028 28.23797 7.915777
2006-04-26 06:46:11 51°14.259 2°55.261 11.097 3.234921 28.149537 7.882067
2006-04-26 06:46:16 51°14.267 2°55.248 11.0912 3.201652 27.822886 7.848358
2006-04-26 06:46:21 51°14.275 2°55.235 11.0827 3.199336 27.793424 7.780939
2006-04-26 06:46:26 51°14.283 2°55.221 11.0647 3.189545 27.694006 7.780939
2006-04-26 06:46:31 51°14.291 2°55.207 11.0798 3.181333 27.613993 7.848358
2006-04-26 06:46:36 51°14.299 2°55.192 11.0826 3.194177 27.73968 7.949486
2006-04-26 06:46:41 51°14.308 2°55.178 11.0619 3.194177 27.73968 7.949486
2006-04-26 06:46:46 51°14.317 2°55.164 11.0654 3.199967 27.798292 8.050614
2006-04-26 06:46:51 51°14.326 2°55.15 11.0528 3.212917 27.934189 8.118033
2006-04-26 06:46:56 51°14.335 2°55.135 11.0315 3.21976 28.009082 8.151742
2006-04-26 06:47:01 51°14.345 2°55.12 10.9931 3.233132 28.145079 8.185452
2006-04-26 06:47:06 51°14.354 2°55.105 10.9969 3.241449 28.227637 8.219161
2006-04-26 06:47:11 51°14.364 2°55.089 10.9795 3.241449 28.227637 8.219161
2006-04-26 06:47:15 51°14.372 2°55.077 10.9698 3.250293 28.314091 8.252871
2006-04-26 06:47:20 51°14.382 2°55.06 10.9859 3.252083 28.338699 8.28658
2006-04-26 06:47:26 51°14.394 2°55.04 10.985 3.253663 28.362517 8.353999
2006-04-26 06:47:30 51°14.402 2°55.026 10.9696 3.283776 28.66187 8.589965
2006-04-26 06:47:35 51°14.412 2°55.009 10.9882 3.283776 28.66187 8.589965
2006-04-26 06:47:40 51°14.423 2°54.992 10.9728 3.303045 28.86375 8.657383
2006-04-26 06:47:46 51°14.438 2°54.974 10.9733 3.314207 28.984331 8.792221
2006-04-26 06:47:51 51°14.45 2°54.959 10.9194 3.322104 29.074063 8.724802
2006-04-26 06:47:56 51°14.464 2°54.946 10.8934 3.330002 29.158211 8.758512
2006-04-26 06:48:01 51°14.478 2°54.934 10.8833 3.324737 29.107155 8.758512
2006-04-26 06:48:06 51°14.492 2°54.923 10.8033 3.339795 29.255114 8.724802
2006-04-26 06:48:11 51°14.506 2°54.911 10.7922 3.339795 29.255114 8.724802
2006-04-26 06:48:16 51°14.52 2°54.899 10.7773 3.340006 29.253984 8.85964
2006-04-26 06:48:20 51°14.532 2°54.889 10.7734 3.344218 29.299304 9.365281
2006-04-26 06:48:25 51°14.546 2°54.876 10.7576 3.349167 29.360725 9.938341
2006-04-26 06:48:31 51°14.563 2°54.859 10.7293 3.384866 29.730958 10.410272
2006-04-26 06:48:35 51°14.575 2°54.848 10.7365 3.384866 29.730958 10.410272
2006-04-26 06:48:40 51°14.589 2°54.833 10.7453 3.40635 29.966911 11.050751
2006-04-26 06:48:45 51°14.604 2°54.817 10.7108 3.434575 30.274646 11.354136
2006-04-26 06:48:51 51°14.619 2°54.8 10.7295 3.455323 30.509479 11.488973
2006-04-26 06:48:56 51°14.633 2°54.784 10.7119 3.462696 30.600397 11.387845
2006-04-26 06:49:00 51°14.644 2°54.771 10.7242 3.480074 30.788998 11.354136
2006-04-26 06:49:07 51°14.664 2°54.749 10.702 3.480074 30.788998 11.354136
2006-04-26 06:49:12 51°14.678 2°54.734 10.7205 3.491871 30.921057 11.185589
2006-04-26 06:49:16 51°14.69 2°54.722 10.6929 3.49977 31.008877 11.11817
2006-04-26 06:49:22 51°14.709 2°54.705 10.6735 3.50609 31.077156 11.219298
2006-04-26 06:49:27 51°14.724 2°54.693 10.6963 3.513147 31.15751 11.455264
2006-04-26 06:49:31 51°14.736 2°54.682 10.6727 3.513779 31.165778 11.623811
2006-04-26 06:49:36 51°14.752 2°54.671 10.6829 3.513779 31.165778 11.623811
2006-04-26 06:49:42 51°14.771 2°54.657 10.6796 3.519046 31.222427 11.826067
2006-04-26 06:49:46 51°14.783 2°54.646 10.6697 3.520836 31.242802 11.859777
2006-04-26 06:49:50 51°14.796 2°54.637 10.634 3.522627 31.264552 11.893486
2006-04-26 06:49:56 51°14.814 2°54.622 10.6122 3.523259 31.278998 11.758648
2006-04-26 06:50:00 51°14.827 2°54.612 10.6168 3.522943 31.282049 11.590101
2006-04-26 06:50:06 51°14.845 2°54.595 10.6049 3.524418 31.304818 11.421554
2006-04-26 06:50:11 51°14.86 2°54.58 10.5894 3.524418 31.304818 11.421554
2006-04-26 06:50:16 51°14.874 2°54.565 10.6004 3.525155 31.315521 11.320426
2006-04-26 06:50:20 51°14.886 2°54.552 10.591 3.525682 31.326208 11.253007
2006-04-26 06:50:26 51°14.903 2°54.533 10.5833 3.527789 31.362806 11.11817
2006-04-26 06:50:32 51°14.92 2°54.514 10.5811 3.528948 31.389391 10.949623
2006-04-26 06:50:36 51°14.931 2°54.501 10.5753 3.528843 31.400754 10.814785
2006-04-26 06:50:40 51°14.943 2°54.488 10.5701 3.528843 31.400754 10.814785
2006-04-26 06:50:47 51°14.963 2°54.466 10.567 3.528632 31.410396 10.747366
2006-04-26 06:50:52 51°14.978 2°54.451 10.5581 3.528738 31.419719 10.612529
2006-04-26 06:50:56 51°14.99 2°54.44 10.5652 3.528527 31.421778 10.54511
2006-04-26 06:51:00 51°15.002 2°54.429 10.5658 3.52937 31.434255 10.54511
2006-04-26 06:51:07 51°15.022 2°54.411 10.5607 3.52937 31.434255 10.54511
2006-04-26 06:51:11 51°15.035 2°54.401 10.5544 3.530212 31.448119 10.679947
2006-04-26 06:51:16 51°15.05 2°54.388 10.541 3.530318 31.454001 10.983332
2006-04-26 06:51:20 51°15.062 2°54.378 10.5553 3.530002 31.455024 11.320426
2006-04-26 06:51:26 51°15.08 2°54.363 10.5529 3.529475 31.456729 11.421554
2006-04-26 06:51:30 51°15.092 2°54.354 10.5462 3.528843 31.451166 11.623811
2006-04-26 06:51:36 51°15.11 2°54.339 10.546 3.527895 31.443167 12.095742
2006-04-26 06:51:40 51°15.123 2°54.329 10.5418 3.527895 31.443167 12.095742
2006-04-26 06:51:46 51°15.141 2°54.315 10.5349 3.528633 31.45254 12.702512
2006-04-26 06:51:50 51°15.154 2°54.305 10.5268 3.52937 31.463299 13.174443
2006-04-26 06:51:56 51°15.172 2°54.29 10.5237 3.530845 31.479976 13.309281
2006-04-26 06:52:00 51°15.184 2°54.279 10.524 3.532003 31.49422 13.275571
2006-04-26 06:52:07 51°15.204 2°54.259 10.5219 3.533057 31.510197 13.073315
2006-04-26 06:52:11 51°15.216 2°54.247 10.5154 3.533057 31.510197 13.073315
2006-04-26 06:52:16 51°15.23 2°54.23 10.5095 3.533794 31.520275 12.601383
2006-04-26 06:52:22 51°15.247 2°54.209 10.5097 3.533373 31.521652 12.062033
2006-04-26 06:52:26 51°15.258 2°54.196 10.5023 3.53232 31.514686 11.623811
2006-04-26 06:52:30 51°15.27 2°54.182 10.5068 3.531582 31.512238 11.253007
2006-04-26 06:52:36 51°15.286 2°54.162 10.5036 3.531582 31.512238 11.253007
2006-04-26 06:52:40 51°15.298 2°54.148 10.5067 3.530845 31.510483 10.915913
2006-04-26 06:52:47 51°15.318 2°54.125 10.4975 3.530529 31.512904 10.578819
2006-04-26 06:52:52 51°15.333 2°54.109 10.49 3.530003 31.511849 10.309144
2006-04-26 06:52:56 51°15.345 2°54.098 10.4968 3.529581 31.511144 10.039469
2006-04-26 06:53:00 51°15.357 2°54.087 10.4711 3.528739 31.506955 9.736084
2006-04-26 06:53:06 51°15.375 2°54.071 10.477 3.528739 31.506955 9.736084
2006-04-26 06:53:11 51°15.392 2°54.058 10.4685 3.527369 31.493378 9.39899
2006-04-26 06:53:16 51°15.407 2°54.046 10.4605 3.526632 31.486762 9.163024
2006-04-26 06:53:20 51°15.42 2°54.036 10.4442 3.526316 31.484323 8.927059
2006-04-26 06:53:26 51°15.439 2°54.021 10.4412 3.526843 31.493016 8.82593
2006-04-26 06:53:31 51°15.454 2°54.009 10.4434 3.528318 31.513196 8.522546
2006-04-26 06:53:36 51°15.47 2°53.996 10.4315 3.531162 31.548362 8.455127
2006-04-26 06:53:40 51°15.482 2°53.985 10.427 3.531162 31.548362 8.455127
2006-04-26 06:53:47 51°15.504 2°53.965 10.4172 3.534216 31.584941 8.252871
2006-04-26 06:53:51 51°15.516 2°53.953 10.4116 3.537166 31.619098 8.084324
2006-04-26 06:53:56 51°15.531 2°53.939 10.4081 3.540326 31.660952 7.949486
2006-04-26 06:54:02 51°15.549 2°53.92 10.4078 3.542959 31.696205 7.74723
2006-04-26 06:54:07 51°15.564 2°53.906 10.4043 3.544539 31.716808 7.612392
2006-04-26 06:54:11 51°15.576 2°53.895 10.3921 3.544539 31.716808 7.612392
2006-04-26 06:54:16 51°15.591 2°53.881 10.3959 3.546646 31.744757 7.443845
2006-04-26 06:54:20 51°15.604 2°53.87 10.3773 3.549069 31.773759 7.309007
2006-04-26 06:54:26 51°15.622 2°53.855 10.3701 3.551808 31.808024 7.275298
2006-04-26 06:54:32 51°15.641 2°53.84 10.372 3.554441 31.839149 7.14046
2006-04-26 06:54:36 51°15.654 2°53.83 10.3533 3.554441 31.839149 7.14046
2006-04-26 06:54:42 51°15.672 2°53.816 10.3538 3.557706 31.875873 6.938204
2006-04-26 06:54:47 51°15.688 2°53.803 10.3535 3.559708 31.904258 6.803366
2006-04-26 06:54:52 51°15.704 2°53.791 10.3405 3.562447 31.937181 6.769657
2006-04-26 06:54:56 51°15.717 2°53.781 10.3354 3.564553 31.962407 6.634819
2006-04-26 06:55:00 51°15.729 2°53.772 10.325 3.567292 31.998189 6.5674
2006-04-26 06:55:07 51°15.751 2°53.754 10.3188 3.569715 32.027297 6.533691
2006-04-26 06:55:12 51°15.766 2°53.741 10.3122 3.569715 32.027297 6.533691
2006-04-26 06:55:16 51°15.779 2°53.73 10.3069 3.572454 32.063118 6.5674
2006-04-26 06:55:20 51°15.791 2°53.72 10.3023 3.574771 32.089783 6.634819
2006-04-26 06:55:26 51°15.81 2°53.703 10.2948 3.577089 32.122859 6.702238
2006-04-26 06:55:32 51°15.828 2°53.687 10.3021 3.579301 32.152058 6.702238
2006-04-26 06:55:36 51°15.84 2°53.677 10.2958 3.580671 32.17357 6.735947
2006-04-26 06:55:42 51°15.859 2°53.66 10.2969 3.580671 32.17357 6.735947
2006-04-26 06:55:46 51°15.871 2°53.65 10.2961 3.581724 32.191937 6.837076
2006-04-26 06:55:51 51°15.886 2°53.636 10.2959 3.582988 32.21099 6.837076
2006-04-26 06:55:56 51°15.902 2°53.622 10.2927 3.584042 32.227947 6.870785
2006-04-26 06:56:00 51°15.914 2°53.612 10.2917 3.584042 32.234381 6.904494
2006-04-26 06:56:07 51°15.935 2°53.593 10.2914 3.584042 32.234381 6.904494
2006-04-26 06:56:12 51°15.951 2°53.579 10.2894 3.584674 32.24356 6.870785
2006-04-26 06:56:17 51°15.966 2°53.566 10.2885 3.58499 32.249581 6.904494
2006-04-26 06:56:20 51°15.975 2°53.557 10.2911 3.585095 32.253497 6.870785
2006-04-26 06:56:27 51°15.997 2°53.539 10.2879 3.58499 32.253875 6.837076
2006-04-26 06:56:31 51°16.009 2°53.528 10.2889 3.584779 32.2532 6.803366
2006-04-26 06:56:36 51°16.024 2°53.516 10.2923 3.584779 32.2532 6.803366
2006-04-26 06:56:42 51°16.043 2°53.5 10.2982 3.584358 32.248987 6.769657
2006-04-26 06:56:47 51°16.059 2°53.489 10.2957 3.58341 32.240938 6.735947
2006-04-26 06:56:51 51°16.071 2°53.479 10.2902 3.581619 32.223748 6.702238
2006-04-26 06:56:56 51°16.087 2°53.467 10.2863 3.580145 32.209003 6.702238
2006-04-26 06:57:01 51°16.103 2°53.454 10.287 3.578459 32.193581 6.702238
2006-04-26 06:57:07 51°16.121 2°53.439 10.287 3.57709 32.178462 6.769657
2006-04-26 06:57:11 51°16.134 2°53.428 10.2764 3.57709 32.178462 6.769657
2006-04-26 06:57:17 51°16.152 2°53.413 10.287 3.575826 32.164398 6.735947
2006-04-26 06:57:22 51°16.168 2°53.399 10.2791 3.574351 32.148944 6.702238
2006-04-26 06:57:27 51°16.183 2°53.386 10.2834 3.574456 32.152851 6.735947
2006-04-26 06:57:31 51°16.196 2°53.376 10.2802 3.573403 32.146603 6.803366
2006-04-26 06:57:36 51°16.212 2°53.363 10.2761 3.573824 32.152243 6.769657
2006-04-26 06:57:40 51°16.224 2°53.353 10.2848 3.573824 32.152243 6.769657
2006-04-26 06:57:46 51°16.243 2°53.339 10.2794 3.574772 32.163863 6.735947
2006-04-26 06:57:52 51°16.262 2°53.325 10.2712 3.575931 32.176877 6.735947
2006-04-26 06:57:57 51°16.278 2°53.315 10.2711 3.576669 32.18568 6.668529
2006-04-26 06:58:02 51°16.294 2°53.304 10.2687 3.577617 32.193731 6.60111
2006-04-26 06:58:07 51°16.311 2°53.293 10.2659 3.577617 32.193731 6.60111
2006-04-26 06:58:11 51°16.323 2°53.284 10.256 3.578565 32.205357 6.499982
2006-04-26 06:58:16 51°16.339 2°53.273 10.2532 3.579197 32.213109 6.398853
2006-04-26 06:58:21 51°16.355 2°53.261 10.2426 3.579723 32.217661 6.264016
2006-04-26 06:58:27 51°16.374 2°53.247 10.2417 3.581198 32.235275 6.095469
2006-04-26 06:58:31 51°16.386 2°53.237 10.2348 3.5832 32.258163 5.994341
2006-04-26 06:58:36 51°16.402 2°53.225 10.2297 3.5832 32.258163 5.994341
2006-04-26 06:58:42 51°16.421 2°53.21 10.2282 3.585306 32.282828 5.859503
2006-04-26 06:58:47 51°16.437 2°53.198 10.2226 3.588467 32.318763 5.758375
2006-04-26 06:58:51 51°16.449 2°53.189 10.2176 3.592891 32.368089 5.724665
2006-04-26 06:58:56 51°16.465 2°53.178 10.2216 3.597947 32.42377 5.690956
2006-04-26 06:59:00 51°16.478 2°53.169 10.2216 3.603109 32.480537 5.657247
2006-04-26 06:59:07 51°16.5 2°53.152 10.2104 3.607428 32.528885 5.589828
2006-04-26 06:59:12 51°16.516 2°53.141 10.2059 3.607428 32.528885 5.589828
2006-04-26 06:59:17 51°16.532 2°53.128 10.2027 3.611221 32.572699 5.589828
2006-04-26 06:59:21 51°16.544 2°53.119 10.2032 3.614802 32.612971 5.556118
2006-04-26 06:59:27 51°16.563 2°53.104 10.2017 3.617331 32.643417 5.522409
2006-04-26 06:59:31 51°16.575 2°53.095 10.1963 3.619332 32.664954 5.522409
2006-04-26 06:59:36 51°16.591 2°53.082 10.1953 3.621018 32.686232 5.556118
2006-04-26 06:59:41 51°16.607 2°53.07 10.1927 3.621018 32.686232 5.556118
2006-04-26 06:59:46 51°16.623 2°53.059 10.1918 3.622809 32.708575 5.522409
2006-04-26 06:59:52 51°16.641 2°53.045 10.1881 3.624073 32.726365 5.45499
2006-04-26 06:59:56 51°16.654 2°53.036 10.1948 3.6246 32.732383 5.4887
2006-04-26 07:00:01 51°16.67 2°53.024 10.2018 3.624178 32.731794 5.4887
2006-04-26 07:00:07 51°16.689 2°53.011 10.1929 3.624178 32.731794 5.4887
2006-04-26 07:00:11 51°16.701 2°53.002 10.1876 3.625864 32.751639 5.421281
2006-04-26 07:00:17 51°16.72 2°52.988 10.1913 3.62618 32.755543 5.45499
2006-04-26 07:00:22 51°16.736 2°52.977 10.1874 3.626496 32.761635 5.45499
2006-04-26 07:00:27 51°16.752 2°52.966 10.1881 3.625969 32.759262 5.387571
2006-04-26 07:00:31 51°16.764 2°52.956 10.1938 3.626285 32.763166 5.4887
2006-04-26 07:00:37 51°16.782 2°52.943 10.1875 3.62618 32.762108 5.4887
2006-04-26 07:00:41 51°16.795 2°52.934 10.185 3.62618 32.762108 5.4887
2006-04-26 07:00:46 51°16.81 2°52.922 10.1815 3.624916 32.750137 5.556118
2006-04-26 07:00:51 51°16.825 2°52.91 10.1905 3.625232 32.754771 5.589828
2006-04-26 07:00:56 51°16.84 2°52.899 10.1817 3.623968 32.744258 5.657247
2006-04-26 07:01:02 51°16.858 2°52.885 10.184 3.623441 32.737507 5.657247
2006-04-26 07:01:07 51°16.873 2°52.874 10.1771 3.622914 32.732216 5.724665
2006-04-26 07:01:11 51°16.885 2°52.865 10.1756 3.622914 32.732216 5.724665
2006-04-26 07:01:16 51°16.9 2°52.853 10.1791 3.622914 32.735132 5.724665
2006-04-26 07:01:22 51°16.918 2°52.838 10.1788 3.622072 32.728122 5.792084
2006-04-26 07:01:27 51°16.933 2°52.826 10.1807 3.621229 32.719655 5.893212
2006-04-26 07:01:32 51°16.948 2°52.814 10.1851 3.620492 32.711518 5.859503
2006-04-26 07:01:37 51°16.964 2°52.802 10.1809 3.618911 32.700013 5.960631
2006-04-26 07:01:41 51°16.975 2°52.792 10.1781 3.618911 32.700013 5.960631
2006-04-26 07:01:47 51°16.994 2°52.777 10.1815 3.618911 32.700742 5.994341
2006-04-26 07:01:51 51°17.007 2°52.768 10.1775 3.617121 32.684933 6.095469
2006-04-26 07:01:56 51°17.022 2°52.757 10.1809 3.617226 32.685992 6.196597
2006-04-26 07:02:01 51°17.038 2°52.747 10.1891 3.616173 32.67468 6.230306
2006-04-26 07:02:07 51°17.057 2°52.734 10.1849 3.616173 32.67468 6.230306
2006-04-26 07:02:11 51°17.07 2°52.725 10.1797 3.615224 32.664427 6.264016
2006-04-26 07:02:17 51°17.089 2°52.713 10.1789 3.615014 32.663038 6.365144
2006-04-26 07:02:22 51°17.104 2°52.702 10.1807 3.612486 32.636186 6.432563
2006-04-26 07:02:27 51°17.12 2°52.691 10.1849 3.61238 32.635855 6.499982
2006-04-26 07:02:31 51°17.132 2°52.682 10.1836 3.611432 32.626332 6.60111
2006-04-26 07:02:36 51°17.147 2°52.671 10.1843 3.610589 32.615687 6.702238
2006-04-26 07:02:40 51°17.159 2°52.661 10.1879 3.610589 32.615687 6.702238
2006-04-26 07:02:46 51°17.177 2°52.646 10.1834 3.610168 32.612182 6.769657
2006-04-26 07:02:52 51°17.195 2°52.632 10.1967 3.607745 32.590753 6.870785
2006-04-26 07:02:57 51°17.21 2°52.62 10.1961 3.607429 32.587579 6.938204
2006-04-26 07:03:02 51°17.226 2°52.608 10.197 3.607218 32.584011 6.938204
2006-04-26 07:03:07 51°17.241 2°52.596 10.1994 3.607218 32.584011 6.938204
2006-04-26 07:03:11 51°17.253 2°52.587 10.2065 3.606902 32.583015 6.971913
2006-04-26 07:03:16 51°17.268 2°52.576 10.2105 3.605533 32.567085 7.005623
2006-04-26 07:03:22 51°17.287 2°52.562 10.2089 3.604269 32.553666 6.938204
2006-04-26 07:03:27 51°17.302 2°52.55 10.2112 3.603005 32.53735 6.870785
2006-04-26 07:03:31 51°17.315 2°52.541 10.2113 3.601003 32.513636 6.803366
2006-04-26 07:03:37 51°17.333 2°52.527 10.2118 3.601003 32.513636 6.803366
2006-04-26 07:03:42 51°17.348 2°52.515 10.2112 3.596263 32.464614 6.735947
2006-04-26 07:03:46 51°17.36 2°52.504 10.2202 3.594261 32.440196 6.702238
2006-04-26 07:03:51 51°17.375 2°52.492 10.2205 3.592154 32.415452 6.668529
2006-04-26 07:03:56 51°17.39 2°52.479 10.2223 3.589837 32.389323 6.702238
2006-04-26 07:04:02 51°17.408 2°52.465 10.2317 3.587941 32.368868 6.702238
2006-04-26 07:04:07 51°17.424 2°52.453 10.2282 3.586466 32.35264 6.702238
2006-04-26 07:04:11 51°17.436 2°52.443 10.2272 3.586466 32.35264 6.702238
2006-04-26 07:04:17 51°17.454 2°52.43 10.2301 3.585097 32.338191 6.668529
2006-04-26 07:04:20 51°17.463 2°52.423 10.2335 3.582674 32.313183 6.668529
2006-04-26 07:04:26 51°17.481 2°52.408 10.2347 3.581726 32.300086 6.634819
2006-04-26 07:04:32 51°17.499 2°52.394 10.2343 3.57688 32.249373 6.634819
2006-04-26 07:04:36 51°17.512 2°52.385 10.2354 3.578565 32.261236 6.634819
2006-04-26 07:04:40 51°17.524 2°52.375 10.2362 3.578565 32.261236 6.634819
2006-04-26 07:04:47 51°17.546 2°52.359 10.2364 3.576669 32.240806 6.634819
2006-04-26 07:04:51 51°17.558 2°52.351 10.2375 3.576775 32.241861 6.60111
2006-04-26 07:04:56 51°17.574 2°52.342 10.2371 3.575721 32.229158 6.634819
2006-04-26 07:05:00 51°17.587 2°52.335 10.2357 3.574562 32.216119 6.60111
2006-04-26 07:05:06 51°17.606 2°52.325 10.238 3.574562 32.216119 6.60111
2006-04-26 07:05:11 51°17.622 2°52.318 10.2281 3.573298 32.202026 6.60111
2006-04-26 07:05:16 51°17.638 2°52.311 10.2292 3.570876 32.176334 6.60111
2006-04-26 07:05:22 51°17.658 2°52.304 10.2184 3.57077 32.174563 6.533691
2006-04-26 07:05:27 51°17.674 2°52.301 10.2137 3.569822 32.164356 6.5674
2006-04-26 07:05:32 51°17.691 2°52.297 10.222 3.570033 32.163604 6.5674
2006-04-26 07:05:36 51°17.704 2°52.296 10.2173 3.570033 32.163604 6.5674
2006-04-26 07:05:41 51°17.721 2°52.293 10.2123 3.569717 32.161155 6.5674
2006-04-26 07:05:47 51°17.74 2°52.293 10.2153 3.573088 32.19562 6.5674
2006-04-26 07:05:51 51°17.754 2°52.292 10.2106 3.575511 32.223464 6.634819
2006-04-26 07:05:56 51°17.77 2°52.291 10.2054 3.578039 32.252372 6.702238
2006-04-26 07:06:01 51°17.786 2°52.29 10.2083 3.579303 32.269342 6.735947
2006-04-26 07:06:07 51°17.806 2°52.289 10.2031 3.580988 32.286948 6.769657
2006-04-26 07:06:11 51°17.819 2°52.288 10.2023 3.580988 32.286948 6.769657
2006-04-26 07:06:16 51°17.836 2°52.286 10.2059 3.582147 32.301434 6.769657
2006-04-26 07:06:21 51°17.852 2°52.284 10.2022 3.581515 32.296537 6.769657
2006-04-26 07:06:27 51°17.872 2°52.283 10.1985 3.582463 32.310352 6.769657
2006-04-26 07:06:31 51°17.885 2°52.283 10.2016 3.582884 32.317453 6.870785
2006-04-26 07:06:36 51°17.901 2°52.283 10.2033 3.581094 32.302377 6.870785
2006-04-26 07:06:42 51°17.921 2°52.286 10.2006 3.581094 32.302377 6.870785
2006-04-26 07:06:46 51°17.934 2°52.289 10.2058 3.57825 32.276022 6.904494
2006-04-26 07:06:52 51°17.953 2°52.295 10.2015 3.577934 32.272854 7.005623
2006-04-26 07:06:57 51°17.969 2°52.302 10.204 3.57688 32.262295 7.106751
2006-04-26 07:07:00 51°17.978 2°52.305 10.2032 3.572772 32.223989 7.17417
2006-04-26 07:07:07 51°18 2°52.314 10.1997 3.572772 32.223989 7.17417
2006-04-26 07:07:11 51°18.013 2°52.318 10.1987 3.572877 32.222892 7.275298
2006-04-26 07:07:16 51°18.029 2°52.323 10.2025 3.571929 32.212674 7.376426
2006-04-26 07:07:22 51°18.048 2°52.329 10.201 3.570244 32.195784 7.612392
2006-04-26 07:07:27 51°18.064 2°52.332 10.2028 3.566663 32.159898 7.74723
2006-04-26 07:07:31 51°18.077 2°52.336 10.2003 3.566768 32.161669 7.915777
2006-04-26 07:07:36 51°18.093 2°52.339 10.2032 3.566768 32.161669 7.915777
2006-04-26 07:07:42 51°18.112 2°52.343 10.2019 3.565398 32.147949 8.151742
2006-04-26 07:07:47 51°18.129 2°52.347 10.2055 3.563924 32.13389 8.28658
2006-04-26 07:07:51 51°18.142 2°52.349 10.206 3.56266 32.123371 8.353999
2006-04-26 07:07:56 51°18.158 2°52.352 10.2084 3.561817 32.116359 8.387708
2006-04-26 07:08:02 51°18.177 2°52.356 10.2095 3.560658 32.102606 8.421418
2006-04-26 07:08:07 51°18.193 2°52.36 10.2062 3.559394 32.089944 8.421418
2006-04-26 07:08:11 51°18.206 2°52.363 10.212 3.559394 32.089944 8.421418
2006-04-26 07:08:16 51°18.222 2°52.366 10.2081 3.557709 32.073063 8.320289
2006-04-26 07:08:20 51°18.235 2°52.369 10.2116 3.555918 32.0537 8.219161
2006-04-26 07:08:27 51°18.258 2°52.374 10.2147 3.554022 32.035425 8.252871
2006-04-26 07:08:32 51°18.274 2°52.379 10.2148 3.552653 32.018149 8.151742
2006-04-26 07:08:37 51°18.29 2°52.383 10.2108 3.551389 32.004068 8.050614
2006-04-26 07:08:41 51°18.303 2°52.386 10.2137 3.551389 32.004068 8.050614
2006-04-26 07:08:47 51°18.322 2°52.39 10.2137 3.548861 31.979472 8.016905
2006-04-26 07:08:52 51°18.339 2°52.394 10.2226 3.547597 31.965395 7.949486
2006-04-26 07:08:57 51°18.355 2°52.399 10.214 3.546333 31.952743 7.949486
2006-04-26 07:09:02 51°18.371 2°52.403 10.2177 3.545385 31.942544 7.983195
2006-04-26 07:09:07 51°18.387 2°52.408 10.2115 3.545385 31.942544 7.983195
2006-04-26 07:09:12 51°18.403 2°52.414 10.2182 3.545279 31.940779 7.983195
2006-04-26 07:09:16 51°18.416 2°52.417 10.2129 3.544437 31.930924 8.016905
2006-04-26 07:09:20 51°18.428 2°52.422 10.2137 3.544331 31.929159 8.016905
2006-04-26 07:09:26 51°18.447 2°52.427 10.2127 3.544437 31.928792 7.983195
2006-04-26 07:09:32 51°18.467 2°52.434 10.2144 3.543489 31.918596 7.983195
2006-04-26 07:09:37 51°18.483 2°52.437 10.2115 3.543173 31.915434 7.949486
2006-04-26 07:09:42 51°18.499 2°52.442 10.2105 3.543173 31.915434 7.949486
2006-04-26 07:09:47 51°18.515 2°52.446 10.2137 3.542541 31.91124 8.016905
2006-04-26 07:09:51 51°18.528 2°52.449 10.2185 3.541487 31.90141 7.949486
2006-04-26 07:09:56 51°18.544 2°52.454 10.2169 3.541277 31.899302 7.915777
2006-04-26 07:10:00 51°18.557 2°52.458 10.2078 3.540223 31.889473 7.915777
2006-04-26 07:10:07 51°18.579 2°52.465 10.2072 3.538749 31.873299 7.814648
2006-04-26 07:10:11 51°18.592 2°52.468 10.21 3.538749 31.873299 7.814648
2006-04-26 07:10:16 51°18.608 2°52.472 10.2132 3.537274 31.859964 7.780939
2006-04-26 07:10:22 51°18.628 2°52.478 10.2076 3.535905 31.846974 7.74723
2006-04-26 07:10:27 51°18.644 2°52.482 10.2151 3.535589 31.842395 7.780939
2006-04-26 07:10:31 51°18.656 2°52.486 10.2107 3.534535 31.829026 7.74723
2006-04-26 07:10:36 51°18.672 2°52.492 10.2085 3.534535 31.829026 7.74723
2006-04-26 07:10:42 51°18.691 2°52.501 10.2052 3.533166 31.818162 7.74723
2006-04-26 07:10:47 51°18.707 2°52.508 10.2044 3.532008 31.807988 7.74723
2006-04-26 07:10:52 51°18.722 2°52.515 10.2047 3.53127 31.800613 7.74723
2006-04-26 07:10:56 51°18.735 2°52.52 10.2002 3.53106 31.798506 7.780939
2006-04-26 07:11:00 51°18.747 2°52.525 10.201 3.530533 31.792531 7.74723
2006-04-26 07:11:06 51°18.766 2°52.533 10.1975 3.530533 31.792531 7.74723
2006-04-26 07:11:12 51°18.785 2°52.542 10.1979 3.52969 31.784811 7.71352
2006-04-26 07:11:17 51°18.801 2°52.548 10.2019 3.52811 31.769716 7.71352
2006-04-26 07:11:21 51°18.814 2°52.552 10.2023 3.526636 31.757796 7.780939
2006-04-26 07:11:27 51°18.833 2°52.559 10.2031 3.526109 31.753235 7.814648
2006-04-26 07:11:32 51°18.849 2°52.566 10.2049 3.525793 31.752195 7.848358
2006-04-26 07:11:36 51°18.862 2°52.571 10.2083 3.525056 31.74694 7.780939
2006-04-26 07:11:40 51°18.874 2°52.577 10.2051 3.525056 31.74694 7.780939
2006-04-26 07:11:47 51°18.896 2°52.587 10.2083 3.52316 31.72939 7.74723
2006-04-26 07:11:51 51°18.909 2°52.593 10.206 3.520843 31.706215 7.71352
2006-04-26 07:11:57 51°18.928 2°52.601 10.2064 3.517999 31.677775 7.646101
2006-04-26 07:12:02 51°18.943 2°52.608 10.2064 3.514628 31.644074 7.612392
2006-04-26 07:12:07 51°18.959 2°52.615 10.2087 3.514628 31.644074 7.612392
2006-04-26 07:12:11 51°18.972 2°52.621 10.208 3.512522 31.620902 7.544973
2006-04-26 07:12:16 51°18.988 2°52.626 10.2067 3.510415 31.597735 7.544973
2006-04-26 07:12:22 51°19.007 2°52.633 10.2024 3.508835 31.580539 7.578683
2006-04-26 07:12:27 51°19.023 2°52.638 10.2068 3.507676 31.569663 7.578683
2006-04-26 07:12:32 51°19.039 2°52.644 10.2127 3.506623 31.55984 7.443845
2006-04-26 07:12:36 51°19.051 2°52.649 10.2185 3.506623 31.55984 7.443845
2006-04-26 07:12:40 51°19.064 2°52.655 10.212 3.504306 31.535282 7.410136
2006-04-26 07:12:47 51°19.086 2°52.666 10.219 3.501673 31.510376 7.376426
2006-04-26 07:12:52 51°19.101 2°52.674 10.2195 3.500514 31.497399 7.443845
2006-04-26 07:12:57 51°19.116 2°52.683 10.2112 3.499988 31.49424 7.342717
2006-04-26 07:13:01 51°19.128 2°52.69 10.2147 3.499145 31.485122 7.309007
2006-04-26 07:13:07 51°19.146 2°52.702 10.2068 3.498092 31.471098 7.241589
2006-04-26 07:13:12 51°19.161 2°52.712 10.2095 3.498092 31.471098 7.241589
2006-04-26 07:13:16 51°19.172 2°52.721 10.2024 3.496933 31.456027 7.207879
2006-04-26 07:13:20 51°19.183 2°52.73 10.202 3.495458 31.440602 7.241589
2006-04-26 07:13:26 51°19.201 2°52.744 10.1989 3.495353 31.435354 7.309007
2006-04-26 07:13:31 51°19.215 2°52.755 10.2078 3.495669 31.439208 7.376426
2006-04-26 07:13:36 51°19.229 2°52.767 10.1999 3.495985 31.444461 7.410136
2006-04-26 07:13:40 51°19.241 2°52.776 10.1985 3.495985 31.444461 7.410136
2006-04-26 07:13:47 51°19.261 2°52.793 10.1997 3.496196 31.450063 7.477554
2006-04-26 07:13:52 51°19.275 2°52.804 10.2049 3.497144 31.46163 7.612392
2006-04-26 07:13:56 51°19.287 2°52.814 10.206 3.497986 31.473548 7.679811
2006-04-26 07:14:02 51°19.304 2°52.827 10.2035 3.499145 31.486523 7.814648
2006-04-26 07:14:07 51°19.319 2°52.837 10.2105 3.499145 31.486523 7.814648
2006-04-26 07:14:11 51°19.331 2°52.846 10.2071 3.500935 31.504412 8.016905
2006-04-26 07:14:16 51°19.345 2°52.857 10.2147 3.503674 31.53388 8.084324
2006-04-26 07:14:22 51°19.363 2°52.87 10.2121 3.505359 31.551423 8.151742
2006-04-26 07:14:27 51°19.377 2°52.881 10.2068 3.506202 31.559142 8.185452
2006-04-26 07:14:32 51°19.392 2°52.892 10.2133 3.506518 31.561597 8.185452
2006-04-26 07:14:36 51°19.403 2°52.902 10.1991 3.506202 31.559142 8.050614
2006-04-26 07:14:42 51°19.421 2°52.915 10.1885 3.506202 31.559142 8.050614
2006-04-26 07:14:47 51°19.435 2°52.926 10.184 3.504938 31.543702 8.016905
2006-04-26 07:14:52 51°19.45 2°52.938 10.1646 3.50399 31.532826 7.949486
2006-04-26 07:14:57 51°19.464 2°52.95 10.1377 3.501673 31.506169 7.882067
2006-04-26 07:15:01 51°19.476 2°52.958 10.1404 3.500093 31.491788 7.949486
2006-04-26 07:15:07 51°19.493 2°52.973 10.1176 3.499882 31.490385 7.882067
2006-04-26 07:15:11 51°19.504 2°52.981 10.1116 3.499882 31.490385 7.882067
2006-04-26 07:15:16 51°19.519 2°52.993 10.1022 3.498197 31.477754 7.949486
2006-04-26 07:15:20 51°19.531 2°53.001 10.0905 3.496406 31.465469 8.118033
2006-04-26 07:15:27 51°19.551 2°53.017 10.0825 3.4943 31.454927 8.185452
2006-04-26 07:15:32 51°19.566 2°53.027 10.0801 3.490614 31.431388 8.320289
2006-04-26 07:15:36 51°19.577 2°53.037 10.0793 3.490298 31.444343 8.455127
2006-04-26 07:15:40 51°19.589 2°53.045 10.0637 3.490298 31.444343 8.455127
2006-04-26 07:15:46 51°19.607 2°53.059 10.0677 3.487244 31.425005 8.589965
2006-04-26 07:15:52 51°19.625 2°53.072 10.0515 3.486191 31.424981 8.691093
2006-04-26 07:15:57 51°19.639 2°53.083 10.0605 3.484716 31.420741 8.758512
2006-04-26 07:16:01 51°19.651 2°53.092 10.0567 3.481662 31.399981 8.724802
2006-04-26 07:16:07 51°19.668 2°53.106 10.0495 3.481662 31.399981 8.724802
2006-04-26 07:16:11 51°19.68 2°53.115 10.0534 3.481136 31.402421 8.82593
2006-04-26 07:16:16 51°19.694 2°53.127 10.0532 3.480504 31.403807 8.792221
2006-04-26 07:16:20 51°19.706 2°53.136 10.0475 3.478187 31.387612 8.82593
2006-04-26 07:16:27 51°19.727 2°53.151 10.0474 3.479872 31.4073 8.792221
2006-04-26 07:16:31 51°19.739 2°53.16 10.0485 3.479345 31.406235 8.792221
2006-04-26 07:16:36 51°19.754 2°53.171 10.0414 3.478292 31.401296 8.792221
2006-04-26 07:16:42 51°19.772 2°53.184 10.04 3.478292 31.401296 8.792221
2006-04-26 07:16:47 51°19.787 2°53.194 10.0393 3.478819 31.409382 8.724802
2006-04-26 07:16:52 51°19.802 2°53.204 10.0366 3.478187 31.404452 8.758512
2006-04-26 07:16:56 51°19.814 2°53.213 10.0332 3.477239 31.396356 8.792221
2006-04-26 07:17:02 51°19.832 2°53.225 10.0346 3.476818 31.392836 8.758512
2006-04-26 07:17:07 51°19.847 2°53.236 10.0229 3.47587 31.385441 8.792221
2006-04-26 07:17:11 51°19.859 2°53.244 10.0258 3.47587 31.385441 8.792221
2006-04-26 07:17:15 51°19.871 2°53.252 10.0235 3.476291 31.391769 8.82593
2006-04-26 07:17:22 51°19.892 2°53.268 10.0214 3.474922 31.380852 8.893349
2006-04-26 07:17:27 51°19.907 2°53.279 10.0314 3.473869 31.373803 8.85964
2006-04-26 07:17:31 51°19.919 2°53.287 10.0348 3.4725 31.362884 8.893349
2006-04-26 07:17:36 51°19.935 2°53.298 10.0356 3.4725 31.362884 8.893349
2006-04-26 07:17:41 51°19.949 2°53.309 10.0386 3.472289 31.363579 8.893349
2006-04-26 07:17:47 51°19.967 2°53.321 10.0379 3.47092 31.353359 8.85964
2006-04-26 07:17:52 51°19.982 2°53.331 10.0377 3.471552 31.361098 8.724802
2006-04-26 07:17:57 51°19.997 2°53.343 10.0451 3.470709 31.353352 8.623674
2006-04-26 07:18:00 51°20.006 2°53.349 10.0452 3.470499 31.349837 8.455127
2006-04-26 07:18:07 51°20.026 2°53.364 10.0492 3.469129 31.334708 8.421418
2006-04-26 07:18:11 51°20.038 2°53.372 10.0514 3.469129 31.334708 8.421418
2006-04-26 07:18:16 51°20.053 2°53.383 10.0501 3.468392 31.325214 8.320289
2006-04-26 07:18:21 51°20.067 2°53.395 10.0533 3.469656 31.336482 8.320289
2006-04-26 07:18:24 51°20.076 2°53.402 10.0518 3.469656 31.334379 8.252871
2006-04-26 07:18:31 51°20.097 2°53.418 10.0522 3.469235 31.328054 8.219161
2006-04-26 07:18:36 51°20.111 2°53.43 10.052 3.467549 31.308364 8.118033
2006-04-26 07:18:41 51°20.125 2°53.442 10.0479 3.467549 31.308364 8.118033
2006-04-26 07:18:47 51°20.143 2°53.455 10.0483 3.469129 31.322095 8.118033
2006-04-26 07:18:51 51°20.154 2°53.464 10.0448 3.469972 31.327036 8.050614
2006-04-26 07:18:56 51°20.169 2°53.475 10.0416 3.469129 31.318593 8.084324
2006-04-26 07:19:01 51°20.184 2°53.486 10.0358 3.470077 31.32669 7.983195
2006-04-26 07:19:06 51°20.199 2°53.497 10.0266 3.470182 31.327746 8.016905
2006-04-26 07:19:12 51°20.217 2°53.509 10.0221 3.470182 31.327746 8.016905
2006-04-26 07:19:16 51°20.229 2°53.518 10.0191 3.467444 31.300309 7.915777
2006-04-26 07:19:21 51°20.244 2°53.529 10.0256 3.468708 31.315772 7.915777
2006-04-26 07:19:26 51°20.259 2°53.541 10.0221 3.465654 31.286569 7.915777
2006-04-26 07:19:31 51°20.274 2°53.551 10.0134 3.466812 31.300277 7.882067
2006-04-26 07:19:36 51°20.289 2°53.562 10.0201 3.466812 31.300277 7.882067
2006-04-26 07:19:40 51°20.301 2°53.571 10.0239 3.465654 31.292867 7.882067
2006-04-26 07:19:47 51°20.322 2°53.586 10.0229 3.462705 31.268911 7.814648
2006-04-26 07:19:51 51°20.334 2°53.594 10.0298 3.462494 31.272397 7.882067
2006-04-26 07:19:56 51°20.349 2°53.604 10.0328 3.461336 31.261484 7.848358
2006-04-26 07:20:00 51°20.36 2°53.613 10.0375 3.455122 31.200607 7.814648
2006-04-26 07:20:07 51°20.381 2°53.629 10.0336 3.457333 31.225566 7.780939
2006-04-26 07:20:11 51°20.392 2°53.638 10.0356 3.457333 31.225566 7.780939
2006-04-26 07:20:15 51°20.404 2°53.648 10.0365 3.457755 31.229089 7.74723
2006-04-26 07:20:21 51°20.422 2°53.661 10.0324 3.455543 31.206225 7.71352
2006-04-26 07:20:26 51°20.436 2°53.673 10.0373 3.455438 31.203773 7.646101
2006-04-26 07:20:31 51°20.452 2°53.682 10.039 3.455754 31.202052 7.679811
2006-04-26 07:20:36 51°20.466 2°53.695 10.0395 3.455438 31.196792 7.612392
2006-04-26 07:20:41 51°20.48 2°53.706 10.0378 3.455438 31.196792 7.612392
2006-04-26 07:20:44 51°20.489 2°53.713 10.0384 3.454595 31.187654 7.646101
2006-04-26 07:20:52 51°20.512 2°53.731 10.0401 3.454068 31.182378 7.646101
2006-04-26 07:20:56 51°20.523 2°53.741 10.0406 3.453436 31.17535 7.646101
2006-04-26 07:21:01 51°20.539 2°53.752 10.0517 3.454384 31.184846 7.679811
2006-04-26 07:21:06 51°20.553 2°53.764 10.046 3.453647 31.176066 7.679811
2006-04-26 07:21:10 51°20.565 2°53.772 10.0455 3.453647 31.176066 7.679811
2006-04-26 07:21:15 51°20.579 2°53.784 10.0456 3.451751 31.15638 7.679811
2006-04-26 07:21:20 51°20.594 2°53.795 10.0482 3.454279 31.181698 7.679811
2006-04-26 07:21:26 51°20.612 2°53.808 10.0465 3.450909 31.147245 7.679811
2006-04-26 07:21:30 51°20.623 2°53.817 10.0462 3.455753 31.195771 7.646101
2006-04-26 07:21:36 51°20.641 2°53.83 10.0478 3.455753 31.195771 7.646101
2006-04-26 07:21:39 51°20.65 2°53.837 10.0523 3.456807 31.20353 7.612392
2006-04-26 07:21:46 51°20.671 2°53.852 10.0527 3.452699 31.159602 7.511264
2006-04-26 07:21:51 51°20.686 2°53.863 10.0497 3.456175 31.194409 7.410136
2006-04-26 07:21:56 51°20.701 2°53.874 10.0482 3.458702 31.220426 7.309007
2006-04-26 07:22:00 51°20.713 2°53.883 10.0521 3.463863 31.270729 7.207879
2006-04-26 07:22:07 51°20.734 2°53.899 10.0479 3.465127 31.283392 7.14046
2006-04-26 07:22:12 51°20.749 2°53.91 10.0474 3.465127 31.283392 7.14046
2006-04-26 07:22:17 51°20.764 2°53.921 10.0439 3.465443 31.285158 7.039332
2006-04-26 07:22:20 51°20.772 2°53.928 10.0396 3.466812 31.297477 6.971913
2006-04-26 07:22:27 51°20.793 2°53.943 10.039 3.46302 31.258792 6.938204
2006-04-26 07:22:31 51°20.805 2°53.952 10.0359 3.467128 31.299943 6.904494
2006-04-26 07:22:36 51°20.82 2°53.964 10.0336 3.467128 31.301343 6.837076
2006-04-26 07:22:41 51°20.835 2°53.974 10.0255 3.467128 31.301343 6.837076
2006-04-26 07:22:44 51°20.844 2°53.981 10.0258 3.471868 31.349537 6.803366
2006-04-26 07:22:52 51°20.868 2°53.997 10.0293 3.471973 31.350593 6.735947
2006-04-26 07:22:56 51°20.88 2°54.006 10.0291 3.473026 31.363954 6.702238
2006-04-26 07:23:01 51°20.895 2°54.018 10.0302 3.474395 31.380486 6.702238
2006-04-26 07:23:06 51°20.909 2°54.029 10.0282 3.474395 31.380486 6.702238
2006-04-26 07:23:11 51°20.924 2°54.04 10.0298 3.474711 31.387866 6.668529
2006-04-26 07:23:16 51°20.939 2°54.052 10.031 3.468603 31.328728 6.634819
2006-04-26 07:23:21 51°20.953 2°54.065 10.0367 3.473764 31.383276 6.60111
2006-04-26 07:23:26 51°20.968 2°54.076 10.0344 3.467971 31.325897 6.634819
2006-04-26 07:23:31 51°20.982 2°54.087 10.038 3.474185 31.388203 6.634819
2006-04-26 07:23:36 51°20.997 2°54.099 10.029 3.474185 31.388203 6.634819
2006-04-26 07:23:42 51°21.015 2°54.112 10.0052 3.47408 31.386445 6.60111
2006-04-26 07:23:47 51°21.03 2°54.123 9.9845 3.470604 31.352296 6.634819
2006-04-26 07:23:51 51°21.042 2°54.132 9.9603 3.476502 31.410738 6.60111
2006-04-26 07:23:56 51°21.057 2°54.141 9.9391 3.477555 31.419192 6.60111
2006-04-26 07:24:02 51°21.075 2°54.155 9.9034 3.471552 31.358292 6.5674
2006-04-26 07:24:07 51°21.09 2°54.166 9.8878 3.476291 31.405815 6.5674
2006-04-26 07:24:11 51°21.102 2°54.176 9.8835 3.476291 31.405815 6.5674
2006-04-26 07:24:16 51°21.116 2°54.187 9.8626 3.476502 31.412143 6.533691
2006-04-26 07:24:20 51°21.128 2°54.196 9.8647 3.480189 31.463199 6.5674
2006-04-26 07:24:27 51°21.148 2°54.212 9.8565 3.481663 31.494919 6.634819
2006-04-26 07:24:32 51°21.163 2°54.223 9.8426 3.483138 31.53021 6.60111
2006-04-26 07:24:37 51°21.178 2°54.234 9.8283 3.482401 31.544724 6.60111
2006-04-26 07:24:40 51°21.187 2°54.24 9.827 3.482401 31.544724 6.60111
2006-04-26 07:24:47 51°21.207 2°54.255 9.8118 3.48198 31.560314 6.668529
2006-04-26 07:24:52 51°21.222 2°54.266 9.816 3.481032 31.567786 6.634819
2006-04-26 07:24:57 51°21.237 2°54.277 9.8134 3.476293 31.534955 6.634819
2006-04-26 07:25:01 51°21.249 2°54.285 9.8163 3.474292 31.52189 6.634819
2006-04-26 07:25:06 51°21.264 2°54.296 9.8091 3.473028 31.521917 6.634819
2006-04-26 07:25:11 51°21.279 2°54.306 9.8118 3.473028 31.521917 6.634819
2006-04-26 07:25:16 51°21.293 2°54.317 9.8043 3.469026 31.492933 6.702238
2006-04-26 07:25:20 51°21.305 2°54.325 9.8043 3.467341 31.485871 6.60111
2006-04-26 07:25:26 51°21.323 2°54.339 9.8047 3.472713 31.547828 6.60111
2006-04-26 07:25:31 51°21.338 2°54.35 9.8033 3.471449 31.537923 6.533691
2006-04-26 07:25:36 51°21.352 2°54.36 9.7932 3.467868 31.503234 6.60111
2006-04-26 07:25:41 51°21.367 2°54.372 9.7926 3.467868 31.503234 6.60111
2006-04-26 07:25:44 51°21.376 2°54.378 9.7922 3.468289 31.511029 6.5674
2006-04-26 07:25:51 51°21.397 2°54.393 9.7981 3.467657 31.506076 6.533691
2006-04-26 07:25:56 51°21.412 2°54.404 9.8013 3.460074 31.432447 6.499982
2006-04-26 07:26:00 51°21.423 2°54.413 9.8011 3.461654 31.449792 6.466272
2006-04-26 07:26:06 51°21.441 2°54.425 9.8096 3.465551 31.490508 6.499982
2006-04-26 07:26:12 51°21.459 2°54.438 9.8206 3.465551 31.490508 6.499982
2006-04-26 07:26:16 51°21.471 2°54.446 9.8098 3.467341 31.514246 6.499982
2006-04-26 07:26:20 51°21.483 2°54.455 9.8087 3.465446 31.49796 6.432563
2006-04-26 07:26:26 51°21.501 2°54.466 9.8081 3.46534 31.496898 6.466272
2006-04-26 07:26:31 51°21.516 2°54.475 9.8133 3.466183 31.503978 6.398853
2006-04-26 07:26:36 51°21.531 2°54.484 9.8249 3.465446 31.494412 6.365144
2006-04-26 07:26:40 51°21.543 2°54.492 9.8178 3.465446 31.494412 6.365144
2006-04-26 07:26:47 51°21.564 2°54.505 9.8198 3.464603 31.483785 6.365144
2006-04-26 07:26:51 51°21.576 2°54.512 9.8214 3.46376 31.472451 6.331435
2006-04-26 07:26:56 51°21.592 2°54.521 9.8191 3.462497 31.458997 6.365144
2006-04-26 07:27:01 51°21.607 2°54.53 9.8154 3.462391 31.457226 6.297725
2006-04-26 07:27:06 51°21.623 2°54.537 9.82 3.462391 31.457226 6.297725
2006-04-26 07:27:11 51°21.638 2°54.545 9.8187 3.461759 31.450146 6.398853
2006-04-26 07:27:16 51°21.653 2°54.552 9.8219 3.461654 31.445543 6.365144
2006-04-26 07:27:21 51°21.669 2°54.56 9.8275 3.461127 31.439525 6.331435
2006-04-26 07:27:24 51°21.679 2°54.563 9.8292 3.459758 31.422184 6.297725
2006-04-26 07:27:31 51°21.701 2°54.574 9.8265 3.460179 31.428554 6.264016
2006-04-26 07:27:36 51°21.717 2°54.58 9.8289 3.459863 31.426077 6.264016
2006-04-26 07:27:42 51°21.735 2°54.59 9.8346 3.459863 31.426077 6.264016
2006-04-26 07:27:46 51°21.748 2°54.595 9.8443 3.459863 31.426784 6.331435
2006-04-26 07:27:51 51°21.764 2°54.603 9.8367 3.459758 31.423599 6.230306
2006-04-26 07:27:57 51°21.783 2°54.612 9.8314 3.459337 31.417231 6.230306
2006-04-26 07:28:01 51°21.796 2°54.618 9.83 3.459021 31.411924 6.264016
2006-04-26 07:28:06 51°21.812 2°54.625 9.8285 3.459021 31.411924 6.264016
2006-04-26 07:28:12 51°21.831 2°54.632 9.8311 3.458494 31.405202 6.196597
2006-04-26 07:28:17 51°21.847 2°54.639 9.8235 3.458178 31.400604 6.196597
2006-04-26 07:28:20 51°21.857 2°54.643 9.8238 3.458178 31.395657 6.196597
2006-04-26 07:28:26 51°21.876 2°54.651 9.8251 3.458073 31.393182 6.162888
2006-04-26 07:28:32 51°21.895 2°54.66 9.8251 3.458073 31.394596 6.196597
2006-04-26 07:28:36 51°21.907 2°54.666 9.8212 3.457757 31.393532 6.129178
2006-04-26 07:28:42 51°21.926 2°54.676 9.8181 3.457757 31.393532 6.129178
2006-04-26 07:28:47 51°21.942 2°54.684 9.8185 3.457652 31.393884 6.129178
2006-04-26 07:28:51 51°21.955 2°54.69 9.8101 3.457862 31.39742 6.095469
2006-04-26 07:28:56 51°21.971 2°54.697 9.8082 3.458073 31.399543 6.129178
2006-04-26 07:29:01 51°21.987 2°54.704 9.8076 3.458389 31.404848 6.129178
2006-04-26 07:29:07 51°22.006 2°54.711 9.8063 3.456282 31.385034 6.162888
2006-04-26 07:29:11 51°22.019 2°54.717 9.8014 3.456282 31.385034 6.162888
2006-04-26 07:29:16 51°22.035 2°54.722 9.8059 3.457336 31.397062 6.129178
2006-04-26 07:29:21 51°22.052 2°54.729 9.8021 3.458284 31.408737 6.196597
2006-04-26 07:29:26 51°22.068 2°54.734 9.8002 3.457652 31.405196 6.196597
2006-04-26 07:29:32 51°22.088 2°54.741 9.7936 3.460706 31.438818 6.196597
2006-04-26 07:29:36 51°22.101 2°54.745 9.7938 3.461338 31.446606 6.162888
2006-04-26 07:29:41 51°22.117 2°54.751 9.804 3.461338 31.446606 6.162888
2006-04-26 07:29:46 51°22.133 2°54.757 9.795 3.461865 31.454042 6.196597
2006-04-26 07:29:51 51°22.149 2°54.763 9.8004 3.462602 31.463603 6.162888
2006-04-26 07:29:56 51°22.165 2°54.769 9.8026 3.463339 31.473874 6.129178
2006-04-26 07:30:02 51°22.185 2°54.775 9.7967 3.462497 31.466794 6.129178
2006-04-26 07:30:06 51°22.198 2°54.78 9.7945 3.462497 31.466794 6.129178
2006-04-26 07:30:11 51°22.215 2°54.785 9.7997 3.465024 31.49371 6.129178
2006-04-26 07:30:17 51°22.235 2°54.79 9.7953 3.464919 31.494067 6.129178
2006-04-26 07:30:20 51°22.244 2°54.793 9.7954 3.463023 31.473524 6.162888
2006-04-26 07:30:27 51°22.268 2°54.8 9.8 3.464603 31.49017 6.129178
2006-04-26 07:30:32 51°22.284 2°54.805 9.8032 3.463971 31.483086 6.129178
2006-04-26 07:30:36 51°22.297 2°54.81 9.8059 3.463971 31.483086 6.129178
2006-04-26 07:30:42 51°22.317 2°54.815 9.8061 3.464498 31.489107 6.129178
2006-04-26 07:30:46 51°22.33 2°54.82 9.8059 3.461549 31.462196 6.095469
2006-04-26 07:30:52 51°22.35 2°54.826 9.8093 3.463971 31.485214 6.095469
2006-04-26 07:30:56 51°22.363 2°54.83 9.8112 3.463866 31.484152 6.02805
2006-04-26 07:31:02 51°22.383 2°54.835 9.8189 3.462391 31.469277 6.095469
2006-04-26 07:31:07 51°22.399 2°54.84 9.8201 3.463129 31.473877 6.095469
2006-04-26 07:31:12 51°22.416 2°54.844 9.8164 3.463129 31.473877 6.095469
2006-04-26 07:31:16 51°22.429 2°54.848 9.8105 3.462918 31.469625 6.061759
2006-04-26 07:31:21 51°22.445 2°54.852 9.8111 3.463023 31.469978 6.095469
2006-04-26 07:31:26 51°22.461 2°54.857 9.8112 3.462497 31.463958 6.061759
2006-04-26 07:31:31 51°22.478 2°54.862 9.8199 3.462181 31.458645 6.02805
2006-04-26 07:31:36 51°22.494 2°54.866 9.8109 3.462075 31.45404 6.02805
2006-04-26 07:31:41 51°22.511 2°54.873 9.8039 3.462075 31.45404 6.02805
2006-04-26 07:31:46 51°22.527 2°54.877 9.8127 3.462181 31.452977 6.061759
2006-04-26 07:31:52 51°22.547 2°54.884 9.8014 3.462181 31.452977 6.061759
2006-04-26 07:31:57 51°22.564 2°54.889 9.7954 3.462497 31.456871 6.02805
2006-04-26 07:32:02 51°22.58 2°54.894 9.7931 3.462918 31.461119 6.02805
2006-04-26 07:32:06 51°22.593 2°54.899 9.7816 3.462918 31.461119 6.02805
2006-04-26 07:32:11 51°22.609 2°54.905 9.7781 3.463234 31.463597 6.02805
2006-04-26 07:32:17 51°22.629 2°54.911 9.7626 3.46376 31.470324 5.994341
2006-04-26 07:32:20 51°22.638 2°54.915 9.7598 3.464498 31.479177 6.02805
2006-04-26 07:32:26 51°22.658 2°54.921 9.7396 3.465656 31.49228 5.926922
2006-04-26 07:32:31 51°22.674 2°54.927 9.7316 3.466709 31.508581 5.893212
2006-04-26 07:32:36 51°22.69 2°54.932 9.7298 3.4685 31.530196 5.893212
2006-04-26 07:32:41 51°22.707 2°54.937 9.7177 3.4685 31.530196 5.893212
2006-04-26 07:32:47 51°22.727 2°54.942 9.7088 3.471238 31.562807 5.859503
2006-04-26 07:32:51 51°22.74 2°54.946 9.6998 3.474504 31.605024 5.792084
2006-04-26 07:32:56 51°22.756 2°54.951 9.6984 3.477663 31.646207 5.792084
2006-04-26 07:33:02 51°22.775 2°54.957 9.6977 3.481245 31.694537 5.758375
2006-04-26 07:33:07 51°22.791 2°54.963 9.6949 3.481455 31.705967 5.758375
2006-04-26 07:33:11 51°22.804 2°54.967 9.6971 3.481455 31.705967 5.758375
2006-04-26 07:33:16 51°22.82 2°54.974 9.6829 3.486511 31.764257 5.758375
2006-04-26 07:33:22 51°22.839 2°54.981 9.6773 3.488723 31.795963 5.724665
2006-04-26 07:33:26 51°22.852 2°54.987 9.6693 3.490619 31.822336 5.758375
2006-04-26 07:33:31 51°22.868 2°54.993 9.6665 3.491988 31.84267 5.724665
2006-04-26 07:33:36 51°22.884 2°55 9.6652 3.493147 31.860161 5.724665
2006-04-26 07:33:40 51°22.898 2°55.004 9.6664 3.493147 31.860161 5.724665
2006-04-26 07:33:47 51°22.92 2°55.012 9.6558 3.492199 31.852721 5.724665
2006-04-26 07:33:51 51°22.933 2°55.016 9.6539 3.494622 31.882301 5.758375
2006-04-26 07:33:56 51°22.95 2°55.021 9.651 3.494095 31.88129 5.724665
2006-04-26 07:34:01 51°22.966 2°55.026 9.6544 3.496623 31.91484 5.758375
2006-04-26 07:34:06 51°22.982 2°55.032 9.6443 3.497571 31.930948 5.724665
2006-04-26 07:34:11 51°22.998 2°55.037 9.6486 3.497571 31.930948 5.724665
2006-04-26 07:34:16 51°23.015 2°55.042 9.6479 3.49736 31.933147 5.724665
2006-04-26 07:34:21 51°23.031 2°55.049 9.6384 3.496728 31.931075 5.758375
2006-04-26 07:34:26 51°23.047 2°55.053 9.6365 3.499994 31.967079 5.758375
2006-04-26 07:34:32 51°23.066 2°55.061 9.6308 3.499994 31.972144 5.758375
2006-04-26 07:34:36 51°23.079 2°55.066 9.62 3.500204 31.975729 5.724665
2006-04-26 07:34:41 51°23.095 2°55.073 9.6156 3.500204 31.975729 5.724665
2006-04-26 07:34:46 51°23.111 2°55.079 9.6073 3.50052 31.98183 5.792084
2006-04-26 07:34:52 51°23.13 2°55.087 9.5921 3.501468 31.991448 5.758375
2006-04-26 07:34:57 51°23.145 2°55.094 9.587 3.501995 31.999689 5.758375
2006-04-26 07:35:00 51°23.155 2°55.098 9.5781 3.502732 32.012245 5.758375
2006-04-26 07:35:07 51°23.177 2°55.107 9.5658 3.50347 32.021178 5.825794
2006-04-26 07:35:11 51°23.19 2°55.113 9.5594 3.50347 32.021178 5.825794
2006-04-26 07:35:16 51°23.206 2°55.119 9.5504 3.504523 32.037674 5.926922
2006-04-26 07:35:22 51°23.225 2°55.126 9.5482 3.49715 31.969351 6.061759
2006-04-26 07:35:27 51°23.24 2°55.132 9.5466 3.500416 32.015556 6.264016
2006-04-26 07:35:31 51°23.253 2°55.137 9.5488 3.503891 32.058855 6.432563
2006-04-26 07:35:36 51°23.269 2°55.142 9.5369 3.508842 32.117173 6.499982
2006-04-26 07:35:41 51°23.286 2°55.147 9.5352 3.508842 32.117173 6.499982
2006-04-26 07:35:47 51°23.305 2°55.152 9.538 3.512739 32.169198 6.634819
2006-04-26 07:35:52 51°23.321 2°55.157 9.5228 3.512845 32.178301 6.668529
2006-04-26 07:35:57 51°23.338 2°55.161 9.5193 3.513687 32.194182 6.769657
2006-04-26 07:36:00 51°23.348 2°55.163 9.5203 3.514109 32.204319 6.803366
2006-04-26 07:36:07 51°23.37 2°55.168 9.5159 3.514004 32.206904 6.870785
2006-04-26 07:36:11 51°23.383 2°55.172 9.5133 3.514004 32.206904 6.870785
2006-04-26 07:36:16 51°23.399 2°55.176 9.5056 3.514109 32.212365 6.904494
2006-04-26 07:36:21 51°23.416 2°55.181 9.5083 3.513793 32.213538 6.904494
2006-04-26 07:36:26 51°23.432 2°55.185 9.5141 3.513582 32.215785 6.971913
2006-04-26 07:36:31 51°23.448 2°55.19 9.5115 3.513372 32.218764 6.971913
2006-04-26 07:36:36 51°23.464 2°55.194 9.5112 3.512951 32.218866 6.971913
2006-04-26 07:36:41 51°23.481 2°55.198 9.5084 3.512951 32.218866 6.971913
2006-04-26 07:36:46 51°23.496 2°55.203 9.5041 3.512951 32.221063 7.005623
2006-04-26 07:36:51 51°23.512 2°55.207 9.5077 3.512635 32.223704 6.971913
2006-04-26 07:36:57 51°23.531 2°55.213 9.4997 3.512529 32.224828 6.938204
2006-04-26 07:37:02 51°23.547 2°55.218 9.5069 3.512108 32.221268 6.837076
2006-04-26 07:37:06 51°23.56 2°55.222 9.5052 3.511792 32.218048 6.803366
2006-04-26 07:37:11 51°23.576 2°55.226 9.5074 3.511792 32.218048 6.803366
2006-04-26 07:37:16 51°23.592 2°55.23 9.5051 3.511476 32.216293 6.702238
2006-04-26 07:37:21 51°23.609 2°55.234 9.5063 3.511476 32.217026 6.668529
2006-04-26 07:37:27 51°23.628 2°55.239 9.5076 3.511055 32.21493 6.634819
2006-04-26 07:37:32 51°23.643 2°55.243 9.5109 3.51095 32.216054 6.60111
2006-04-26 07:37:36 51°23.656 2°55.245 9.5139 3.51095 32.216054 6.60111
2006-04-26 07:37:41 51°23.672 2°55.249 9.5123 3.510528 32.212493 6.499982
2006-04-26 07:37:46 51°23.688 2°55.253 9.5183 3.510002 32.204929 6.432563
2006-04-26 07:37:51 51°23.704 2°55.258 9.5189 3.509791 32.204247 6.365144
2006-04-26 07:37:56 51°23.72 2°55.261 9.5217 3.509791 32.203514 6.297725
2006-04-26 07:38:01 51°23.735 2°55.266 9.5155 3.50937 32.199221 6.264016
2006-04-26 07:38:07 51°23.754 2°55.271 9.511 3.509475 32.198097 6.162888
2006-04-26 07:38:12 51°23.77 2°55.276 9.5113 3.509475 32.198097 6.162888
2006-04-26 07:38:17 51°23.786 2°55.281 9.506 3.508948 32.190535 6.02805
2006-04-26 07:38:21 51°23.799 2°55.284 9.5091 3.508527 32.18551 5.960631
2006-04-26 07:38:27 51°23.817 2°55.29 9.5096 3.508211 32.178633 5.859503
2006-04-26 07:38:32 51°23.833 2°55.293 9.511 3.508316 32.178974 5.859503
2006-04-26 07:38:37 51°23.849 2°55.298 9.5075 3.508527 32.18112 5.792084
2006-04-26 07:38:39 51°23.855 2°55.299 9.5088 3.508527 32.18112 5.792084
2006-04-26 07:38:46 51°23.877 2°55.306 9.5067 3.508422 32.182242 5.792084
2006-04-26 07:38:51 51°23.892 2°55.311 9.5082 3.508211 32.182291 5.724665
2006-04-26 07:38:56 51°23.908 2°55.316 9.5095 3.508316 32.184096 5.724665
2006-04-26 07:39:00 51°23.92 2°55.32 9.5034 3.508422 32.185169 5.724665
2006-04-26 07:39:06 51°23.939 2°55.325 9.5084 3.508422 32.185169 5.724665
2006-04-26 07:39:12 51°23.959 2°55.33 9.5072 3.508422 32.185169 5.657247
2006-04-26 07:39:17 51°23.975 2°55.334 9.5085 3.508422 32.185901 5.657247
2006-04-26 07:39:20 51°23.984 2°55.336 9.5071 3.508527 32.18917 5.589828
2006-04-26 07:39:27 51°24.006 2°55.343 9.5064 3.508738 32.191317 5.589828
2006-04-26 07:39:31 51°24.019 2°55.347 9.5012 3.508632 32.190243 5.522409
2006-04-26 07:39:36 51°24.035 2°55.351 9.5008 3.508632 32.190243 5.522409
2006-04-26 07:39:42 51°24.055 2°55.356 9.499 3.508316 32.188488 5.522409
2006-04-26 07:39:47 51°24.071 2°55.359 9.4955 3.508211 32.187414 5.421281
2006-04-26 07:39:51 51°24.084 2°55.363 9.4993 3.508316 32.187024 5.353862
2006-04-26 07:39:56 51°24.1 2°55.365 9.5025 3.508106 32.186341 5.353862
2006-04-26 07:40:00 51°24.113 2°55.368 9.5005 3.508422 32.190293 5.353862
2006-04-26 07:40:04 51°24.126 2°55.371 9.4988 3.508527 32.192831 5.353862
2006-04-26 07:40:11 51°24.147 2°55.377 9.4983 3.508527 32.192831 5.353862
2006-04-26 07:40:16 51°24.163 2°55.382 9.4904 3.508738 32.197174 5.387571
2006-04-26 07:40:21 51°24.178 2°55.388 9.4897 3.508632 32.19903 5.353862
2006-04-26 07:40:26 51°24.194 2°55.392 9.4883 3.509054 32.203325 5.353862
2006-04-26 07:40:31 51°24.21 2°55.397 9.4856 3.509159 32.202933 5.387571
2006-04-26 07:40:36 51°24.226 2°55.401 9.4839 3.50937 32.204348 5.387571
2006-04-26 07:40:41 51°24.242 2°55.406 9.4892 3.50937 32.204348 5.387571
2006-04-26 07:40:47 51°24.261 2°55.411 9.4887 3.50958 32.20796 5.353862
2006-04-26 07:40:52 51°24.277 2°55.416 9.4861 3.509896 32.212646 5.320153
2006-04-26 07:40:57 51°24.293 2°55.421 9.4833 3.510002 32.217384 5.387571
2006-04-26 07:41:01 51°24.306 2°55.425 9.4771 3.510318 32.222072 5.353862
2006-04-26 07:41:06 51°24.322 2°55.428 9.4758 3.510318 32.224272 5.320153
2006-04-26 07:41:11 51°24.338 2°55.433 9.4706 3.510318 32.224272 5.320153
2006-04-26 07:41:16 51°24.355 2°55.437 9.4639 3.51095 32.232182 5.320153
2006-04-26 07:41:22 51°24.374 2°55.443 9.4705 3.511055 32.23399 5.252734
2006-04-26 07:41:26 51°24.387 2°55.446 9.4672 3.511687 32.2397 5.252734
2006-04-26 07:41:31 51°24.403 2°55.45 9.464 3.512214 32.247272 5.320153
2006-04-26 07:41:36 51°24.419 2°55.453 9.4644 3.512846 32.257387 5.320153
2006-04-26 07:41:42 51°24.438 2°55.459 9.4557 3.512846 32.257387 5.320153
2006-04-26 07:41:47 51°24.455 2°55.464 9.4604 3.513688 32.26892 5.286443
2006-04-26 07:41:52 51°24.471 2°55.468 9.4562 3.514004 32.274347 5.286443
2006-04-26 07:41:56 51°24.484 2°55.472 9.4478 3.514426 32.283055 5.219024
2006-04-26 07:42:01 51°24.501 2°55.476 9.4474 3.514531 32.284865 5.252734
2006-04-26 07:42:04 51°24.51 2°55.479 9.4481 3.515163 32.293519 5.252734
2006-04-26 07:42:11 51°24.533 2°55.485 9.4466 3.515163 32.293519 5.252734
2006-04-26 07:42:16 51°24.549 2°55.49 9.4469 3.515163 32.296461 5.219024
2006-04-26 07:42:22 51°24.569 2°55.496 9.4365 3.516322 32.310493 5.286443
2006-04-26 07:42:27 51°24.586 2°55.502 9.4357 3.517059 32.320226 5.320153
2006-04-26 07:42:31 51°24.599 2°55.505 9.4352 3.517586 32.327811 5.320153
2006-04-26 07:42:36 51°24.615 2°55.51 9.4263 3.518218 32.337209 5.353862
2006-04-26 07:42:40 51°24.629 2°55.514 9.4299 3.518218 32.337209 5.353862
2006-04-26 07:42:47 51°24.652 2°55.52 9.4353 3.518639 32.342985 5.353862
2006-04-26 07:42:52 51°24.668 2°55.525 9.4279 3.518955 32.348422 5.353862
2006-04-26 07:42:56 51°24.681 2°55.529 9.4361 3.519377 32.357148 5.387571
2006-04-26 07:43:02 51°24.7 2°55.536 9.4264 3.519693 32.364062 5.421281
2006-04-26 07:43:06 51°24.713 2°55.54 9.4296 3.519693 32.364062 5.421281
2006-04-26 07:43:11 51°24.73 2°55.547 9.4237 3.520325 32.373469 5.45499
2006-04-26 07:43:16 51°24.746 2°55.552 9.4192 3.520535 32.380049 5.522409
2006-04-26 07:43:19 51°24.756 2°55.556 9.4128 3.520746 32.38294 5.4887
2006-04-26 07:43:26 51°24.779 2°55.565 9.412 3.521273 32.387582 5.522409
2006-04-26 07:43:32 51°24.799 2°55.571 9.4129 3.521483 32.388997 5.45499
2006-04-26 07:43:37 51°24.816 2°55.577 9.4158 3.522326 32.399083 5.45499
2006-04-26 07:43:42 51°24.832 2°55.581 9.4008 3.522326 32.399083 5.45499
2006-04-26 07:43:46 51°24.846 2°55.586 9.3956 3.522642 32.403051 5.421281
2006-04-26 07:43:51 51°24.862 2°55.592 9.3942 3.523169 32.411388 5.421281
2006-04-26 07:43:56 51°24.879 2°55.597 9.3856 3.52359 32.41939 5.4887
2006-04-26 07:44:01 51°24.895 2°55.603 9.3906 3.524327 32.432103 5.421281
2006-04-26 07:44:07 51°24.915 2°55.609 9.388 3.524959 32.438564 5.4887
2006-04-26 07:44:11 51°24.929 2°55.614 9.3798 3.524959 32.438564 5.4887
2006-04-26 07:44:17 51°24.949 2°55.62 9.3793 3.525486 32.445428 5.4887
2006-04-26 07:44:22 51°24.966 2°55.626 9.3688 3.526118 32.457812 5.45499
2006-04-26 07:44:27 51°24.982 2°55.631 9.3669 3.526645 32.466901 5.4887
2006-04-26 07:44:31 51°24.995 2°55.636 9.3626 3.527172 32.476734 5.4887
2006-04-26 07:44:36 51°25.012 2°55.642 9.3538 3.527593 32.485492 5.4887
2006-04-26 07:44:41 51°25.029 2°55.648 9.3562 3.527593 32.485492 5.4887
2006-04-26 07:44:46 51°25.045 2°55.655 9.3474 3.528014 32.492027 5.556118
2006-04-26 07:44:52 51°25.065 2°55.662 9.3488 3.528436 32.499305 5.522409
2006-04-26 07:44:56 51°25.078 2°55.668 9.3356 3.529384 32.513459 5.623537
2006-04-26 07:45:02 51°25.098 2°55.674 9.3417 3.530121 32.526204 5.556118
2006-04-26 07:45:07 51°25.115 2°55.68 9.3326 3.530964 32.540032 5.556118
2006-04-26 07:45:11 51°25.129 2°55.683 9.3347 3.530964 32.540032 5.556118
2006-04-26 07:45:16 51°25.145 2°55.688 9.3392 3.531385 32.54955 5.589828
2006-04-26 07:45:20 51°25.158 2°55.692 9.3342 3.532333 32.565953 5.556118
2006-04-26 07:45:26 51°25.178 2°55.698 9.328 3.532755 32.574735 5.522409
2006-04-26 07:45:31 51°25.194 2°55.703 9.3296 3.533387 32.586422 5.556118
2006-04-26 07:45:36 51°25.21 2°55.709 9.3219 3.533808 32.59521 5.623537
2006-04-26 07:45:41 51°25.227 2°55.714 9.3212 3.533808 32.59521 5.623537
2006-04-26 07:45:47 51°25.246 2°55.722 9.3135 3.53444 32.603923 5.589828
2006-04-26 07:45:51 51°25.259 2°55.725 9.316 3.535283 32.61256 5.589828
2006-04-26 07:45:57 51°25.279 2°55.732 9.3061 3.535177 32.613717 5.589828
2006-04-26 07:46:01 51°25.292 2°55.735 9.3034 3.536547 32.629246 5.589828
2006-04-26 07:46:06 51°25.308 2°55.741 9.288 3.537495 32.64195 5.589828
2006-04-26 07:46:11 51°25.324 2°55.746 9.2825 3.537495 32.64195 5.589828
2006-04-26 07:46:17 51°25.343 2°55.752 9.2801 3.537706 32.645603 5.623537
2006-04-26 07:46:21 51°25.356 2°55.757 9.2804 3.539496 32.668447 5.623537
2006-04-26 07:46:24 51°25.365 2°55.76 9.2722 3.54055 32.684483 5.589828
2006-04-26 07:46:31 51°25.387 2°55.768 9.2698 3.541814 32.701938 5.623537
2006-04-26 07:46:36 51°25.404 2°55.773 9.2658 3.541814 32.701938 5.623537
2006-04-26 07:46:41 51°25.42 2°55.779 9.2654 3.542867 32.717986 5.589828
2006-04-26 07:46:47 51°25.439 2°55.784 9.261 3.544553 32.743524 5.556118
2006-04-26 07:46:51 51°25.452 2°55.786 9.2614 3.545606 32.762587 5.556118
2006-04-26 07:46:56 51°25.468 2°55.791 9.2502 3.546343 32.773911 5.4887
2006-04-26 07:47:01 51°25.485 2°55.793 9.2567 3.54687 32.785327 5.522409
2006-04-26 07:47:06 51°25.501 2°55.798 9.2532 3.547502 32.795575 5.4887
2006-04-26 07:47:11 51°25.517 2°55.802 9.2473 3.547502 32.795575 5.4887
2006-04-26 07:47:16 51°25.533 2°55.805 9.2548 3.547818 32.80333 5.522409
2006-04-26 07:47:21 51°25.55 2°55.808 9.2455 3.54845 32.81208 5.387571
2006-04-26 07:47:26 51°25.566 2°55.813 9.2488 3.548766 32.817583 5.353862
2006-04-26 07:47:30 51°25.579 2°55.815 9.2452 3.548766 32.823601 5.320153
2006-04-26 07:47:36 51°25.598 2°55.82 9.2428 3.549082 32.829106 5.286443
2006-04-26 07:47:39 51°25.609 2°55.821 9.2433 3.549082 32.829106 5.286443
2006-04-26 07:47:46 51°25.632 2°55.825 9.2378 3.549398 32.832355 5.252734
2006-04-26 07:47:52 51°25.652 2°55.827 9.2373 3.549609 32.836779 5.185315
2006-04-26 07:47:57 51°25.669 2°55.829 9.2348 3.549609 32.83979 5.151606
2006-04-26 07:48:00 51°25.678 2°55.831 9.2435 3.54982 32.841203 5.117896
2006-04-26 07:48:07 51°25.701 2°55.833 9.2387 3.54982 32.841203 5.117896
2006-04-26 07:48:11 51°25.714 2°55.836 9.2362 3.549714 32.842379 5.117896
2006-04-26 07:48:16 51°25.73 2°55.839 9.2332 3.550136 32.848217 5.084187
2006-04-26 07:48:20 51°25.743 2°55.841 9.2346 3.550031 32.850147 5.084187
2006-04-26 07:48:27 51°25.766 2°55.846 9.2292 3.54982 32.849487 4.983059
2006-04-26 07:48:32 51°25.782 2°55.85 9.2285 3.550136 32.854997 5.084187
2006-04-26 07:48:36 51°25.795 2°55.852 9.2313 3.550031 32.853161 5.084187
2006-04-26 07:48:42 51°25.814 2°55.856 9.227 3.550031 32.853161 5.084187
2006-04-26 07:48:46 51°25.827 2°55.859 9.2297 3.550136 32.856505 5.016768
2006-04-26 07:48:51 51°25.843 2°55.862 9.2251 3.550347 32.859425 4.983059
2006-04-26 07:48:56 51°25.859 2°55.865 9.215 3.550241 32.859849 4.949349
2006-04-26 07:49:00 51°25.872 2°55.867 9.2209 3.550452 32.864277 4.983059
2006-04-26 07:49:07 51°25.895 2°55.871 9.2144 3.550452 32.865031 5.016768
2006-04-26 07:49:11 51°25.908 2°55.872 9.2158 3.550452 32.865031 5.016768
2006-04-26 07:49:16 51°25.925 2°55.875 9.2129 3.550452 32.867293 4.91564
2006-04-26 07:49:21 51°25.941 2°55.876 9.2191 3.550768 32.871298 4.91564
2006-04-26 07:49:26 51°25.957 2°55.88 9.219 3.550768 32.873561 4.91564
2006-04-26 07:49:31 51°25.973 2°55.882 9.2171 3.550873 32.878417 4.88193
2006-04-26 07:49:36 51°25.99 2°55.886 9.2139 3.550873 32.879926 4.88193
2006-04-26 07:49:40 51°26.002 2°55.889 9.2056 3.550873 32.879926 4.88193
2006-04-26 07:49:47 51°26.025 2°55.894 9.211 3.550979 32.883273 4.780802
2006-04-26 07:49:51 51°26.038 2°55.896 9.2118 3.551611 32.892043 4.780802
2006-04-26 07:49:56 51°26.054 2°55.9 9.2093 3.551611 32.890533 4.780802
2006-04-26 07:50:00 51°26.067 2°55.904 9.2082 3.551716 32.890107 4.814512
2006-04-26 07:50:06 51°26.086 2°55.907 9.2101 3.551716 32.890107 4.814512
2006-04-26 07:50:12 51°26.105 2°55.911 9.2165 3.552032 32.894869 4.814512
2006-04-26 07:50:16 51°26.118 2°55.914 9.2123 3.551927 32.899071 4.780802
2006-04-26 07:50:21 51°26.135 2°55.916 9.216 3.551611 32.896573 4.747093
2006-04-26 07:50:24 51°26.144 2°55.919 9.2118 3.551611 32.897328 4.780802
2006-04-26 07:50:31 51°26.167 2°55.923 9.1986 3.551716 32.897657 4.780802
2006-04-26 07:50:36 51°26.183 2°55.926 9.2019 3.551084 32.891906 4.780802
2006-04-26 07:50:40 51°26.196 2°55.928 9.1963 3.551084 32.891906 4.780802
2006-04-26 07:50:46 51°26.216 2°55.931 9.1946 3.550663 32.886814 4.747093
2006-04-26 07:50:51 51°26.232 2°55.934 9.1938 3.550452 32.884645 4.780802
2006-04-26 07:50:57 51°26.253 2°55.936 9.1945 3.550242 32.880967 4.814512
2006-04-26 07:51:02 51°26.269 2°55.937 9.197 3.550347 32.882806 4.780802
2006-04-26 07:51:07 51°26.286 2°55.938 9.1974 3.550031 32.884082 4.814512
2006-04-26 07:51:12 51°26.302 2°55.94 9.1996 3.550031 32.884082 4.814512
2006-04-26 07:51:16 51°26.316 2°55.941 9.2003 3.550031 32.887103 4.814512
2006-04-26 07:51:22 51°26.335 2°55.943 9.2021 3.54982 32.889464 4.848221
2006-04-26 07:51:27 51°26.352 2°55.945 9.2067 3.549715 32.88989 4.848221
2006-04-26 07:51:32 51°26.368 2°55.947 9.2075 3.549294 32.887062 4.814512
2006-04-26 07:51:36 51°26.381 2°55.948 9.2119 3.548451 32.87914 4.848221
2006-04-26 07:51:41 51°26.398 2°55.95 9.2065 3.548451 32.87914 4.848221
2006-04-26 07:51:47 51°26.417 2°55.952 9.214 3.547608 32.868198 4.88193
2006-04-26 07:51:51 51°26.43 2°55.953 9.2159 3.546134 32.851505 4.88193
2006-04-26 07:51:56 51°26.447 2°55.956 9.2148 3.544975 32.838069 4.91564
2006-04-26 07:52:00 51°26.46 2°55.957 9.2173 3.544027 32.826802 4.949349
2006-04-26 07:52:06 51°26.479 2°55.959 9.2209 3.544027 32.826802 4.949349
2006-04-26 07:52:12 51°26.498 2°55.963 9.2284 3.542763 32.811532 4.949349
2006-04-26 07:52:16 51°26.511 2°55.964 9.2282 3.542026 32.802437 5.050477
2006-04-26 07:52:21 51°26.527 2°55.966 9.2311 3.540656 32.78684 5.050477
2006-04-26 07:52:26 51°26.543 2°55.97 9.2304 3.539603 32.772992 5.084187
2006-04-26 07:52:32 51°26.563 2°55.972 9.2382 3.538128 32.756316 5.084187
2006-04-26 07:52:36 51°26.575 2°55.975 9.2421 3.536338 32.737144 5.084187
2006-04-26 07:52:40 51°26.588 2°55.976 9.247 3.536338 32.737144 5.084187
2006-04-26 07:52:46 51°26.608 2°55.979 9.2459 3.535389 32.722886 5.050477
2006-04-26 07:52:51 51°26.624 2°55.98 9.2484 3.534336 32.709801 5.084187
2006-04-26 07:52:57 51°26.644 2°55.983 9.2514 3.533072 32.692303 5.117896
2006-04-26 07:52:59 51°26.65 2°55.984 9.2467 3.531387 32.672727 5.151606
2006-04-26 07:53:06 51°26.673 2°55.986 9.2487 3.529385 32.64841 5.050477
2006-04-26 07:53:12 51°26.692 2°55.989 9.2527 3.529385 32.64841 5.050477
2006-04-26 07:53:17 51°26.709 2°55.991 9.2503 3.527805 32.627681 5.117896
2006-04-26 07:53:21 51°26.721 2°55.993 9.2547 3.526647 32.612784 5.084187
2006-04-26 07:53:26 51°26.738 2°55.995 9.2484 3.525067 32.594309 5.084187
2006-04-26 07:53:32 51°26.757 2°55.999 9.2597 3.524224 32.582665 5.084187
2006-04-26 07:53:36 51°26.77 2°56.001 9.2515 3.523487 32.575092 5.151606
2006-04-26 07:53:42 51°26.79 2°56.003 9.2567 3.523487 32.575092 5.151606
2006-04-26 07:53:47 51°26.806 2°56.006 9.2498 3.52296 32.570429 5.117896
2006-04-26 07:53:51 51°26.819 2°56.006 9.2531 3.522539 32.564609 5.117896
2006-04-26 07:53:56 51°26.835 2°56.009 9.2489 3.522117 32.559535 5.185315
2006-04-26 07:54:02 51°26.854 2°56.011 9.2513 3.521801 32.55629 5.117896
2006-04-26 07:54:07 51°26.87 2°56.014 9.2522 3.521591 32.551887 5.151606
2006-04-26 07:54:12 51°26.886 2°56.017 9.2494 3.521591 32.551887 5.151606
2006-04-26 07:54:17 51°26.902 2°56.019 9.2567 3.521169 32.546815 5.185315
2006-04-26 07:54:20 51°26.912 2°56.021 9.2503 3.520643 32.542153 5.185315
2006-04-26 07:54:27 51°26.935 2°56.023 9.2549 3.520011 32.536409 5.185315
2006-04-26 07:54:32 51°26.951 2°56.026 9.2445 3.519905 32.535328 5.185315
2006-04-26 07:54:35 51°26.961 2°56.026 9.2469 3.519695 32.533165 5.151606
2006-04-26 07:54:41 51°26.981 2°56.028 9.2386 3.519695 32.533165 5.151606
2006-04-26 07:54:46 51°26.998 2°56.028 9.2406 3.519273 32.53033 5.185315
2006-04-26 07:54:51 51°27.014 2°56.03 9.2408 3.519168 32.528502 5.252734
2006-04-26 07:54:56 51°27.031 2°56.03 9.2322 3.518957 32.526339 5.286443
2006-04-26 07:55:02 51°27.05 2°56.033 9.2346 3.518852 32.526003 5.286443
2006-04-26 07:55:06 51°27.063 2°56.033 9.2393 3.518431 32.522423 5.320153
2006-04-26 07:55:11 51°27.079 2°56.034 9.2323 3.518431 32.522423 5.320153
2006-04-26 07:55:17 51°27.099 2°56.035 9.243 3.518431 32.523914 5.320153
2006-04-26 07:55:22 51°27.115 2°56.037 9.2338 3.517904 32.522234 5.353862
2006-04-26 07:55:26 51°27.129 2°56.038 9.238 3.517799 32.521898 5.387571
2006-04-26 07:55:31 51°27.145 2°56.04 9.235 3.517799 32.522644 5.387571
2006-04-26 07:55:36 51°27.162 2°56.042 9.2353 3.517272 32.520218 5.387571
2006-04-26 07:55:41 51°27.178 2°56.044 9.2377 3.517272 32.520218 5.387571
2006-04-26 07:55:47 51°27.198 2°56.047 9.2383 3.517272 32.520963 5.387571
2006-04-26 07:55:51 51°27.211 2°56.048 9.2387 3.517167 32.519136 5.353862
2006-04-26 07:55:56 51°27.227 2°56.05 9.2355 3.517378 32.522791 5.387571
2006-04-26 07:56:02 51°27.247 2°56.053 9.2379 3.517167 32.521373 5.387571
2006-04-26 07:56:07 51°27.263 2°56.056 9.2347 3.517167 32.521373 5.387571
2006-04-26 07:56:11 51°27.276 2°56.057 9.2373 3.517167 32.521373 5.387571
2006-04-26 07:56:17 51°27.296 2°56.06 9.2338 3.517167 32.519882 5.387571
2006-04-26 07:56:22 51°27.313 2°56.061 9.2307 3.517167 32.519136 5.353862
2006-04-26 07:56:27 51°27.329 2°56.063 9.2356 3.517062 32.520291 5.353862
2006-04-26 07:56:31 51°27.343 2°56.064 9.2352 3.517167 32.521373 5.320153
2006-04-26 07:56:37 51°27.363 2°56.066 9.2332 3.517167 32.520627 5.286443
2006-04-26 07:56:40 51°27.373 2°56.067 9.234 3.517167 32.520627 5.286443
2006-04-26 07:56:47 51°27.396 2°56.07 9.2326 3.517272 32.522455 5.320153
2006-04-26 07:56:51 51°27.409 2°56.072 9.2348 3.517272 32.522455 5.286443
2006-04-26 07:56:57 51°27.429 2°56.074 9.2359 3.517062 32.521783 5.286443
2006-04-26 07:57:02 51°27.445 2°56.077 9.2293 3.517167 32.523611 5.320153
2006-04-26 07:57:07 51°27.462 2°56.079 9.2351 3.517062 32.521783 5.252734
2006-04-26 07:57:12 51°27.479 2°56.08 9.2374 3.517062 32.521783 5.252734
2006-04-26 07:57:16 51°27.492 2°56.082 9.2448 3.517167 32.522865 5.252734